<?xml version="1.0" encoding="UTF-8" standalone="no" ?>
<gpx xmlns="http://www.topografix.com/GPX/1/1" xmlns:xsi="http://www.w3.org/2001/XMLSchema-instance" xsi:schemaLocation="http://www.topografix.com/GPX/1/1 http://www.topografix.com/GPX/1/1/gpx.xsd" version="1.1" creator="VisuGPX - https://www.visugpx.com">
  <metadata>
    <name>Grand Delmas par Couspeau</name>
    <desc><![CDATA[CAP : Grand Delmas depuis la Chaudi?re en passant par les cr?tes de Couspeau. ]]></desc>
  </metadata>
  <trk>
    <name><![CDATA[Move]]></name>
    <trkseg>
      <trkpt lat="44.63007" lon="5.20595">
        <ele>1024.84909952</ele>
        <time>2016-07-24T08:16:50.009Z</time>
      </trkpt>
      <trkpt lat="44.6301" lon="5.20599">
        <ele>1024.44909952</ele>
        <time>2016-07-24T08:16:54.009Z</time>
      </trkpt>
      <trkpt lat="44.63015" lon="5.20604">
        <ele>1023.84909952</ele>
        <time>2016-07-24T08:17:00.009Z</time>
      </trkpt>
      <trkpt lat="44.6302" lon="5.20612">
        <ele>1023.24909952</ele>
        <time>2016-07-24T08:17:06.009Z</time>
      </trkpt>
      <trkpt lat="44.63029" lon="5.20627">
        <ele>1021.94729856</ele>
        <time>2016-07-24T08:17:12.009Z</time>
      </trkpt>
      <trkpt lat="44.63033" lon="5.20652">
        <ele>1020</ele>
        <time>2016-07-24T08:17:19.009Z</time>
      </trkpt>
      <trkpt lat="44.63031" lon="5.20674">
        <ele>1020</ele>
        <time>2016-07-24T08:17:25.009Z</time>
      </trkpt>
      <trkpt lat="44.63029" lon="5.20696">
        <ele>1019.49819904</ele>
        <time>2016-07-24T08:17:31.009Z</time>
      </trkpt>
      <trkpt lat="44.63032" lon="5.20716">
        <ele>1018.29819904</ele>
        <time>2016-07-24T08:17:37.009Z</time>
      </trkpt>
      <trkpt lat="44.63035" lon="5.20744">
        <ele>1015.39639808</ele>
        <time>2016-07-24T08:17:45.009Z</time>
      </trkpt>
      <trkpt lat="44.63043" lon="5.20772">
        <ele>1014</ele>
        <time>2016-07-24T08:17:54.009Z</time>
      </trkpt>
      <trkpt lat="44.63049" lon="5.20787">
        <ele>1013.89819904</ele>
        <time>2016-07-24T08:17:59.009Z</time>
      </trkpt>
      <trkpt lat="44.63062" lon="5.2081">
        <ele>1012.29819904</ele>
        <time>2016-07-24T08:18:07.009Z</time>
      </trkpt>
      <trkpt lat="44.63079" lon="5.20829">
        <ele>1011.34909952</ele>
        <time>2016-07-24T08:18:15.009Z</time>
      </trkpt>
      <trkpt lat="44.63097" lon="5.20848">
        <ele>1009.19639808</ele>
        <time>2016-07-24T08:18:23.009Z</time>
      </trkpt>
      <trkpt lat="44.63116" lon="5.2086">
        <ele>1006.74909952</ele>
        <time>2016-07-24T08:18:31.009Z</time>
      </trkpt>
      <trkpt lat="44.63136" lon="5.20871">
        <ele>1005.94909952</ele>
        <time>2016-07-24T08:18:39.009Z</time>
      </trkpt>
      <trkpt lat="44.6315" lon="5.20883">
        <ele>1005.34909952</ele>
        <time>2016-07-24T08:18:45.009Z</time>
      </trkpt>
      <trkpt lat="44.63163" lon="5.20897">
        <ele>1004.74909952</ele>
        <time>2016-07-24T08:18:51.009Z</time>
      </trkpt>
      <trkpt lat="44.63176" lon="5.20915">
        <ele>1004.14909952</ele>
        <time>2016-07-24T08:18:57.009Z</time>
      </trkpt>
      <trkpt lat="44.63189" lon="5.20929">
        <ele>1001.7454976</ele>
        <time>2016-07-24T08:19:03.009Z</time>
      </trkpt>
      <trkpt lat="44.63204" lon="5.20934">
        <ele>998.94909952</ele>
        <time>2016-07-24T08:19:09.009Z</time>
      </trkpt>
      <trkpt lat="44.63219" lon="5.20936">
        <ele>998.44909952</ele>
        <time>2016-07-24T08:19:14.009Z</time>
      </trkpt>
      <trkpt lat="44.63235" lon="5.20938">
        <ele>997.69819904</ele>
        <time>2016-07-24T08:19:20.009Z</time>
      </trkpt>
      <trkpt lat="44.63252" lon="5.20947">
        <ele>996.09819904</ele>
        <time>2016-07-24T08:19:28.009Z</time>
      </trkpt>
      <trkpt lat="44.6323" lon="5.20953">
        <ele>994.04729856</ele>
        <time>2016-07-24T08:19:35.009Z</time>
      </trkpt>
      <trkpt lat="44.63208" lon="5.20958">
        <ele>993</ele>
        <time>2016-07-24T08:19:43.009Z</time>
      </trkpt>
      <trkpt lat="44.63184" lon="5.20959">
        <ele>993</ele>
        <time>2016-07-24T08:19:51.009Z</time>
      </trkpt>
      <trkpt lat="44.6316" lon="5.20947">
        <ele>992.94909952</ele>
        <time>2016-07-24T08:19:59.009Z</time>
      </trkpt>
      <trkpt lat="44.63142" lon="5.20928">
        <ele>992.14909952</ele>
        <time>2016-07-24T08:20:07.009Z</time>
      </trkpt>
      <trkpt lat="44.63124" lon="5.20923">
        <ele>991.44909952</ele>
        <time>2016-07-24T08:20:14.009Z</time>
      </trkpt>
      <trkpt lat="44.63107" lon="5.20927">
        <ele>991.25090048</ele>
        <time>2016-07-24T08:20:21.009Z</time>
      </trkpt>
      <trkpt lat="44.63091" lon="5.20935">
        <ele>991.85090048</ele>
        <time>2016-07-24T08:20:27.009Z</time>
      </trkpt>
      <trkpt lat="44.63067" lon="5.20933">
        <ele>992</ele>
        <time>2016-07-24T08:20:35.009Z</time>
      </trkpt>
      <trkpt lat="44.63051" lon="5.20926">
        <ele>991.74909952</ele>
        <time>2016-07-24T08:20:41.009Z</time>
      </trkpt>
      <trkpt lat="44.63029" lon="5.20909">
        <ele>990.86899968</ele>
        <time>2016-07-24T08:20:49.810Z</time>
      </trkpt>
      <trkpt lat="44.63012" lon="5.20888">
        <ele>990.04909952</ele>
        <time>2016-07-24T08:20:58.009Z</time>
      </trkpt>
      <trkpt lat="44.62997" lon="5.20857">
        <ele>987.74759808</ele>
        <time>2016-07-24T08:21:06.008Z</time>
      </trkpt>
      <trkpt lat="44.62982" lon="5.20827">
        <ele>986.44909952</ele>
        <time>2016-07-24T08:21:14.009Z</time>
      </trkpt>
      <trkpt lat="44.62969" lon="5.20798">
        <ele>986</ele>
        <time>2016-07-24T08:21:22.011Z</time>
      </trkpt>
      <trkpt lat="44.62956" lon="5.20768">
        <ele>985.69819904</ele>
        <time>2016-07-24T08:21:30.009Z</time>
      </trkpt>
      <trkpt lat="44.62946" lon="5.20734">
        <ele>982.2474944</ele>
        <time>2016-07-24T08:21:42.005Z</time>
      </trkpt>
      <trkpt lat="44.62911" lon="5.20743">
        <ele>978.44879872</ele>
        <time>2016-07-24T08:21:54.012Z</time>
      </trkpt>
      <trkpt lat="44.62878" lon="5.20739">
        <ele>977.29839872</ele>
        <time>2016-07-24T08:22:02.008Z</time>
      </trkpt>
      <trkpt lat="44.62861" lon="5.20712">
        <ele>976</ele>
        <time>2016-07-24T08:22:10.005Z</time>
      </trkpt>
      <trkpt lat="44.62851" lon="5.20678">
        <ele>976</ele>
        <time>2016-07-24T08:22:18.010Z</time>
      </trkpt>
      <trkpt lat="44.62841" lon="5.20652">
        <ele>971.84909952</ele>
        <time>2016-07-24T08:22:30.009Z</time>
      </trkpt>
      <trkpt lat="44.62825" lon="5.20636">
        <ele>971.04869888</ele>
        <time>2016-07-24T08:22:38.013Z</time>
      </trkpt>
      <trkpt lat="44.62812" lon="5.20599">
        <ele>971</ele>
        <time>2016-07-24T08:22:46.012Z</time>
      </trkpt>
      <trkpt lat="44.62801" lon="5.2057">
        <ele>969.89839872</ele>
        <time>2016-07-24T08:22:54.008Z</time>
      </trkpt>
      <trkpt lat="44.62781" lon="5.20538">
        <ele>968.64919936</ele>
        <time>2016-07-24T08:23:02.008Z</time>
      </trkpt>
      <trkpt lat="44.62764" lon="5.20512">
        <ele>967.69879808</ele>
        <time>2016-07-24T08:23:10.006Z</time>
      </trkpt>
      <trkpt lat="44.62746" lon="5.20487">
        <ele>966.09659904</ele>
        <time>2016-07-24T08:23:18.017Z</time>
      </trkpt>
      <trkpt lat="44.62737" lon="5.20479">
        <ele>965.24939904</ele>
        <time>2016-07-24T08:23:26.006Z</time>
      </trkpt>
      <trkpt lat="44.62711" lon="5.20471">
        <ele>962.2444992</ele>
        <time>2016-07-24T08:23:34.011Z</time>
      </trkpt>
      <trkpt lat="44.62682" lon="5.20468">
        <ele>960</ele>
        <time>2016-07-24T08:23:42.000Z</time>
      </trkpt>
      <trkpt lat="44.62666" lon="5.20466">
        <ele>960</ele>
        <time>2016-07-24T08:23:50.016Z</time>
      </trkpt>
      <trkpt lat="44.62653" lon="5.20494">
        <ele>960.70220032</ele>
        <time>2016-07-24T08:24:02.011Z</time>
      </trkpt>
      <trkpt lat="44.62646" lon="5.20527">
        <ele>963.1014016</ele>
        <time>2016-07-24T08:24:14.007Z</time>
      </trkpt>
      <trkpt lat="44.62628" lon="5.20547">
        <ele>964.70180096</ele>
        <time>2016-07-24T08:24:22.009Z</time>
      </trkpt>
      <trkpt lat="44.62609" lon="5.2056">
        <ele>966.30180096</ele>
        <time>2016-07-24T08:24:30.009Z</time>
      </trkpt>
      <trkpt lat="44.62592" lon="5.2055">
        <ele>967.90060032</ele>
        <time>2016-07-24T08:24:38.003Z</time>
      </trkpt>
      <trkpt lat="44.62574" lon="5.20547">
        <ele>968.75020032</ele>
        <time>2016-07-24T08:24:46.002Z</time>
      </trkpt>
      <trkpt lat="44.62559" lon="5.20542">
        <ele>969</ele>
        <time>2016-07-24T08:24:54.003Z</time>
      </trkpt>
      <trkpt lat="44.62539" lon="5.20537">
        <ele>969.3504</ele>
        <time>2016-07-24T08:25:02.004Z</time>
      </trkpt>
      <trkpt lat="44.62518" lon="5.20525">
        <ele>970.1504503652</ele>
        <time>2016-07-24T08:25:10.006Z</time>
      </trkpt>
      <trkpt lat="44.62492" lon="5.20527">
        <ele>971.6992983697</ele>
        <time>2016-07-24T08:25:22.003Z</time>
      </trkpt>
      <trkpt lat="44.62481" lon="5.20544">
        <ele>973.30060032</ele>
        <time>2016-07-24T08:25:30.003Z</time>
      </trkpt>
      <trkpt lat="44.62462" lon="5.20562">
        <ele>974.90180096</ele>
        <time>2016-07-24T08:25:38.009Z</time>
      </trkpt>
      <trkpt lat="44.6245" lon="5.20586">
        <ele>975.75090048</ele>
        <time>2016-07-24T08:25:46.009Z</time>
      </trkpt>
      <trkpt lat="44.62431" lon="5.20617">
        <ele>977.90180096</ele>
        <time>2016-07-24T08:25:58.009Z</time>
      </trkpt>
      <trkpt lat="44.62413" lon="5.20628">
        <ele>978</ele>
        <time>2016-07-24T08:26:06.009Z</time>
      </trkpt>
      <trkpt lat="44.62384" lon="5.20643">
        <ele>978</ele>
        <time>2016-07-24T08:26:18.008Z</time>
      </trkpt>
      <trkpt lat="44.62374" lon="5.20671">
        <ele>979.50200064</ele>
        <time>2016-07-24T08:26:26.010Z</time>
      </trkpt>
      <trkpt lat="44.62379" lon="5.20693">
        <ele>980</ele>
        <time>2016-07-24T08:26:34.009Z</time>
      </trkpt>
      <trkpt lat="44.62391" lon="5.20712">
        <ele>980.7014016</ele>
        <time>2016-07-24T08:26:42.007Z</time>
      </trkpt>
      <trkpt lat="44.62392" lon="5.20732">
        <ele>982.30160128</ele>
        <time>2016-07-24T08:26:50.008Z</time>
      </trkpt>
      <trkpt lat="44.62403" lon="5.20764">
        <ele>983.90060032</ele>
        <time>2016-07-24T08:26:58.003Z</time>
      </trkpt>
      <trkpt lat="44.62417" lon="5.20799">
        <ele>986.60520448</ele>
        <time>2016-07-24T08:27:10.013Z</time>
      </trkpt>
      <trkpt lat="44.62423" lon="5.20814">
        <ele>989.80360192</ele>
        <time>2016-07-24T08:27:18.009Z</time>
      </trkpt>
      <trkpt lat="44.62438" lon="5.20853">
        <ele>990.15130112</ele>
        <time>2016-07-24T08:27:30.013Z</time>
      </trkpt>
      <trkpt lat="44.62442" lon="5.2088">
        <ele>990.95000064</ele>
        <time>2016-07-24T08:27:38.000Z</time>
      </trkpt>
      <trkpt lat="44.62436" lon="5.20905">
        <ele>991.75120128</ele>
        <time>2016-07-24T08:27:46.012Z</time>
      </trkpt>
      <trkpt lat="44.6243" lon="5.2093">
        <ele>992.55060096</ele>
        <time>2016-07-24T08:27:54.006Z</time>
      </trkpt>
      <trkpt lat="44.6242" lon="5.2095">
        <ele>993.70260224</ele>
        <time>2016-07-24T08:28:02.013Z</time>
      </trkpt>
      <trkpt lat="44.62409" lon="5.2097">
        <ele>995.16692546032</ele>
        <time>2016-07-24T08:28:10.004Z</time>
      </trkpt>
      <trkpt lat="44.62398" lon="5.21001">
        <ele>996</ele>
        <time>2016-07-24T08:28:18.004Z</time>
      </trkpt>
      <trkpt lat="44.62382" lon="5.21022">
        <ele>996</ele>
        <time>2016-07-24T08:28:26.009Z</time>
      </trkpt>
      <trkpt lat="44.62359" lon="5.2104">
        <ele>996</ele>
        <time>2016-07-24T08:28:34.009Z</time>
      </trkpt>
      <trkpt lat="44.62341" lon="5.21057">
        <ele>996</ele>
        <time>2016-07-24T08:28:42.010Z</time>
      </trkpt>
      <trkpt lat="44.62314" lon="5.21073">
        <ele>996</ele>
        <time>2016-07-24T08:28:54.008Z</time>
      </trkpt>
      <trkpt lat="44.62295" lon="5.21078">
        <ele>996</ele>
        <time>2016-07-24T08:29:02.007Z</time>
      </trkpt>
      <trkpt lat="44.62262" lon="5.21081">
        <ele>994.89779968</ele>
        <time>2016-07-24T08:29:14.011Z</time>
      </trkpt>
      <trkpt lat="44.62239" lon="5.21106">
        <ele>994</ele>
        <time>2016-07-24T08:29:26.013Z</time>
      </trkpt>
      <trkpt lat="44.62222" lon="5.21125">
        <ele>995.9008</ele>
        <time>2016-07-24T08:29:38.004Z</time>
      </trkpt>
      <trkpt lat="44.62203" lon="5.21133">
        <ele>996.75130112</ele>
        <time>2016-07-24T08:29:46.013Z</time>
      </trkpt>
      <trkpt lat="44.62184" lon="5.21139">
        <ele>999.753504</ele>
        <time>2016-07-24T08:29:54.007Z</time>
      </trkpt>
      <trkpt lat="44.62168" lon="5.21147">
        <ele>1003.05270144</ele>
        <time>2016-07-24T08:30:02.009Z</time>
      </trkpt>
      <trkpt lat="44.62152" lon="5.21152">
        <ele>1005</ele>
        <time>2016-07-24T08:30:10.017Z</time>
      </trkpt>
      <trkpt lat="44.62145" lon="5.21175">
        <ele>1005</ele>
        <time>2016-07-24T08:30:18.009Z</time>
      </trkpt>
      <trkpt lat="44.62136" lon="5.21193">
        <ele>1006.50240256</ele>
        <time>2016-07-24T08:30:26.012Z</time>
      </trkpt>
      <trkpt lat="44.6212" lon="5.21202">
        <ele>1009.7560064</ele>
        <time>2016-07-24T08:30:34.012Z</time>
      </trkpt>
      <trkpt lat="44.62102" lon="5.21203">
        <ele>1012.70200064</ele>
        <time>2016-07-24T08:30:42.010Z</time>
      </trkpt>
      <trkpt lat="44.62088" lon="5.21202">
        <ele>1014.3012996911</ele>
        <time>2016-07-24T08:30:50.008Z</time>
      </trkpt>
      <trkpt lat="44.62078" lon="5.21217">
        <ele>1015.8991013155</ele>
        <time>2016-07-24T08:30:58.005Z</time>
      </trkpt>
      <trkpt lat="44.6207" lon="5.21233">
        <ele>1016.7509519929</ele>
        <time>2016-07-24T08:31:06.012Z</time>
      </trkpt>
      <trkpt lat="44.62061" lon="5.21248">
        <ele>1018.10180096</ele>
        <time>2016-07-24T08:31:14.009Z</time>
      </trkpt>
      <trkpt lat="44.62047" lon="5.21258">
        <ele>1019.35170048</ele>
        <time>2016-07-24T08:31:22.017Z</time>
      </trkpt>
      <trkpt lat="44.62035" lon="5.2127">
        <ele>1020.60240384</ele>
        <time>2016-07-24T08:31:30.006Z</time>
      </trkpt>
      <trkpt lat="44.62029" lon="5.21289">
        <ele>1023.80080128</ele>
        <time>2016-07-24T08:31:38.002Z</time>
      </trkpt>
      <trkpt lat="44.62016" lon="5.21319">
        <ele>1025.3008</ele>
        <time>2016-07-24T08:31:50.004Z</time>
      </trkpt>
      <trkpt lat="44.62012" lon="5.21341">
        <ele>1026.9014016</ele>
        <time>2016-07-24T08:31:58.007Z</time>
      </trkpt>
      <trkpt lat="44.61994" lon="5.21358">
        <ele>1029.2501496102</ele>
        <time>2016-07-24T08:32:06.008Z</time>
      </trkpt>
      <trkpt lat="44.61989" lon="5.21381">
        <ele>1030</ele>
        <time>2016-07-24T08:32:14.007Z</time>
      </trkpt>
      <trkpt lat="44.61987" lon="5.21404">
        <ele>1030.35060096</ele>
        <time>2016-07-24T08:32:22.006Z</time>
      </trkpt>
      <trkpt lat="44.61999" lon="5.21424">
        <ele>1031.30180096</ele>
        <time>2016-07-24T08:32:30.009Z</time>
      </trkpt>
      <trkpt lat="44.62001" lon="5.21439">
        <ele>1032.50180096</ele>
        <time>2016-07-24T08:32:36.009Z</time>
      </trkpt>
      <trkpt lat="44.62015" lon="5.21452">
        <ele>1033.55120128</ele>
        <time>2016-07-24T08:32:44.012Z</time>
      </trkpt>
      <trkpt lat="44.62036" lon="5.21466">
        <ele>1034.70100224</ele>
        <time>2016-07-24T08:32:52.005Z</time>
      </trkpt>
      <trkpt lat="44.62049" lon="5.21494">
        <ele>1037.10180096</ele>
        <time>2016-07-24T08:33:04.009Z</time>
      </trkpt>
      <trkpt lat="44.6206" lon="5.21519">
        <ele>1038.35050112</ele>
        <time>2016-07-24T08:33:12.005Z</time>
      </trkpt>
      <trkpt lat="44.6207" lon="5.21533">
        <ele>1039.3008</ele>
        <time>2016-07-24T08:33:20.004Z</time>
      </trkpt>
      <trkpt lat="44.62077" lon="5.2155">
        <ele>1040.90120192</ele>
        <time>2016-07-24T08:33:28.006Z</time>
      </trkpt>
      <trkpt lat="44.62086" lon="5.21567">
        <ele>1042.50180096</ele>
        <time>2016-07-24T08:33:36.009Z</time>
      </trkpt>
      <trkpt lat="44.62083" lon="5.21604">
        <ele>1043.95030016</ele>
        <time>2016-07-24T08:33:48.003Z</time>
      </trkpt>
      <trkpt lat="44.62065" lon="5.2161">
        <ele>1047.00360192</ele>
        <time>2016-07-24T08:33:56.009Z</time>
      </trkpt>
      <trkpt lat="44.62055" lon="5.21625">
        <ele>1048.55180032</ele>
        <time>2016-07-24T08:34:04.018Z</time>
      </trkpt>
      <trkpt lat="44.62048" lon="5.21653">
        <ele>1049.70120192</ele>
        <time>2016-07-24T08:34:12.006Z</time>
      </trkpt>
      <trkpt lat="44.6205" lon="5.21671">
        <ele>1051.15060096</ele>
        <time>2016-07-24T08:34:20.006Z</time>
      </trkpt>
      <trkpt lat="44.6205" lon="5.21693">
        <ele>1051.95020032</ele>
        <time>2016-07-24T08:34:28.002Z</time>
      </trkpt>
      <trkpt lat="44.62035" lon="5.21712">
        <ele>1052.7504501095</ele>
        <time>2016-07-24T08:34:36.012Z</time>
      </trkpt>
      <trkpt lat="44.62025" lon="5.21736">
        <ele>1055.7522524947</ele>
        <time>2016-07-24T08:34:44.009Z</time>
      </trkpt>
      <trkpt lat="44.62017" lon="5.21755">
        <ele>1058</ele>
        <time>2016-07-24T08:34:52.007Z</time>
      </trkpt>
      <trkpt lat="44.62029" lon="5.21766">
        <ele>1059.1900764824</ele>
        <time>2016-07-24T08:35:04.016Z</time>
      </trkpt>
      <trkpt lat="44.62053" lon="5.21764">
        <ele>1060</ele>
        <time>2016-07-24T08:35:11.982Z</time>
      </trkpt>
      <trkpt lat="44.62075" lon="5.21776">
        <ele>1060.15060096</ele>
        <time>2016-07-24T08:35:20.006Z</time>
      </trkpt>
      <trkpt lat="44.62091" lon="5.21796">
        <ele>1060.95020032</ele>
        <time>2016-07-24T08:35:28.002Z</time>
      </trkpt>
      <trkpt lat="44.62101" lon="5.21828">
        <ele>1063.1507008</ele>
        <time>2016-07-24T08:35:40.007Z</time>
      </trkpt>
      <trkpt lat="44.62111" lon="5.21854">
        <ele>1063.95030016</ele>
        <time>2016-07-24T08:35:48.003Z</time>
      </trkpt>
      <trkpt lat="44.62101" lon="5.21866">
        <ele>1065.50280192</ele>
        <time>2016-07-24T08:35:56.014Z</time>
      </trkpt>
      <trkpt lat="44.62075" lon="5.21852">
        <ele>1068.2016</ele>
        <time>2016-07-24T08:36:04.004Z</time>
      </trkpt>
      <trkpt lat="44.62058" lon="5.21836">
        <ele>1071.05090048</ele>
        <time>2016-07-24T08:36:12.003Z</time>
      </trkpt>
      <trkpt lat="44.62043" lon="5.21823">
        <ele>1073.15100032</ele>
        <time>2016-07-24T08:36:20.010Z</time>
      </trkpt>
      <trkpt lat="44.62027" lon="5.21824">
        <ele>1074.70160128</ele>
        <time>2016-07-24T08:36:32.008Z</time>
      </trkpt>
      <trkpt lat="44.62039" lon="5.21845">
        <ele>1076.15140096</ele>
        <time>2016-07-24T08:36:40.014Z</time>
      </trkpt>
      <trkpt lat="44.62059" lon="5.21866">
        <ele>1076.9507008</ele>
        <time>2016-07-24T08:36:48.007Z</time>
      </trkpt>
      <trkpt lat="44.62069" lon="5.21882">
        <ele>1078.5006981812</ele>
        <time>2016-07-24T08:36:56.011Z</time>
      </trkpt>
      <trkpt lat="44.62085" lon="5.21897">
        <ele>1080.1007011178</ele>
        <time>2016-07-24T08:37:04.008Z</time>
      </trkpt>
      <trkpt lat="44.62071" lon="5.21923">
        <ele>1081.75110016</ele>
        <time>2016-07-24T08:37:16.011Z</time>
      </trkpt>
      <trkpt lat="44.62055" lon="5.21905">
        <ele>1083.10220032</ele>
        <time>2016-07-24T08:37:24.011Z</time>
      </trkpt>
      <trkpt lat="44.62035" lon="5.21876">
        <ele>1085.70340096</ele>
        <time>2016-07-24T08:37:37.017Z</time>
      </trkpt>
      <trkpt lat="44.6201" lon="5.2187">
        <ele>1088.30160128</ele>
        <time>2016-07-24T08:37:50.008Z</time>
      </trkpt>
      <trkpt lat="44.61995" lon="5.21869">
        <ele>1089.90180096</ele>
        <time>2016-07-24T08:37:58.009Z</time>
      </trkpt>
      <trkpt lat="44.61974" lon="5.2188">
        <ele>1093.25090048</ele>
        <time>2016-07-24T08:38:11.009Z</time>
      </trkpt>
      <trkpt lat="44.6196" lon="5.21885">
        <ele>1094.08160256</ele>
        <time>2016-07-24T08:38:18.908Z</time>
      </trkpt>
      <trkpt lat="44.61941" lon="5.21884">
        <ele>1095.50180096</ele>
        <time>2016-07-24T08:38:26.009Z</time>
      </trkpt>
      <trkpt lat="44.61928" lon="5.21888">
        <ele>1097.10180096</ele>
        <time>2016-07-24T08:38:34.009Z</time>
      </trkpt>
      <trkpt lat="44.6191" lon="5.21886">
        <ele>1098.50180096</ele>
        <time>2016-07-24T08:38:41.009Z</time>
      </trkpt>
      <trkpt lat="44.61884" lon="5.21894">
        <ele>1101.30180096</ele>
        <time>2016-07-24T08:38:55.009Z</time>
      </trkpt>
      <trkpt lat="44.61889" lon="5.21882">
        <ele>1103</ele>
        <time>2016-07-24T08:39:16.009Z</time>
      </trkpt>
      <trkpt lat="44.61904" lon="5.21891">
        <ele>1104.10180096</ele>
        <time>2016-07-24T08:39:44.009Z</time>
      </trkpt>
      <trkpt lat="44.61927" lon="5.21902">
        <ele>1105.7008</ele>
        <time>2016-07-24T08:39:52.004Z</time>
      </trkpt>
      <trkpt lat="44.61938" lon="5.21916">
        <ele>1107.6016</ele>
        <time>2016-07-24T08:40:00.004Z</time>
      </trkpt>
      <trkpt lat="44.61938" lon="5.21935">
        <ele>1110.8016</ele>
        <time>2016-07-24T08:40:08.004Z</time>
      </trkpt>
      <trkpt lat="44.61937" lon="5.21957">
        <ele>1112.50240256</ele>
        <time>2016-07-24T08:40:16.012Z</time>
      </trkpt>
      <trkpt lat="44.61931" lon="5.21988">
        <ele>1116.80400128</ele>
        <time>2016-07-24T08:40:28.010Z</time>
      </trkpt>
      <trkpt lat="44.61939" lon="5.21998">
        <ele>1121.15030016</ele>
        <time>2016-07-24T08:40:40.003Z</time>
      </trkpt>
      <trkpt lat="44.61937" lon="5.22012">
        <ele>1121.95090048</ele>
        <time>2016-07-24T08:40:48.009Z</time>
      </trkpt>
      <trkpt lat="44.61931" lon="5.22028">
        <ele>1122.75050112</ele>
        <time>2016-07-24T08:40:56.005Z</time>
      </trkpt>
      <trkpt lat="44.6193" lon="5.22045">
        <ele>1124.65270144</ele>
        <time>2016-07-24T08:41:04.009Z</time>
      </trkpt>
      <trkpt lat="44.61931" lon="5.22069">
        <ele>1126.35080064</ele>
        <time>2016-07-24T08:41:12.008Z</time>
      </trkpt>
      <trkpt lat="44.61931" lon="5.22087">
        <ele>1127.6028032</ele>
        <time>2016-07-24T08:41:20.007Z</time>
      </trkpt>
      <trkpt lat="44.61925" lon="5.22099">
        <ele>1132.05150336</ele>
        <time>2016-07-24T08:41:32.005Z</time>
      </trkpt>
      <trkpt lat="44.61911" lon="5.22084">
        <ele>1134.45270144</ele>
        <time>2016-07-24T08:41:40.009Z</time>
      </trkpt>
      <trkpt lat="44.61899" lon="5.22076">
        <ele>1136.85270144</ele>
        <time>2016-07-24T08:41:48.009Z</time>
      </trkpt>
      <trkpt lat="44.61888" lon="5.22074">
        <ele>1137.75090048</ele>
        <time>2016-07-24T08:41:56.009Z</time>
      </trkpt>
      <trkpt lat="44.61875" lon="5.22078">
        <ele>1140.20120064</ele>
        <time>2016-07-24T08:42:04.003Z</time>
      </trkpt>
      <trkpt lat="44.61863" lon="5.22084">
        <ele>1143.05090048</ele>
        <time>2016-07-24T08:42:12.003Z</time>
      </trkpt>
      <trkpt lat="44.61848" lon="5.22081">
        <ele>1145</ele>
        <time>2016-07-24T08:42:20.008Z</time>
      </trkpt>
      <trkpt lat="44.61837" lon="5.22081">
        <ele>1145</ele>
        <time>2016-07-24T08:42:32.001Z</time>
      </trkpt>
      <trkpt lat="44.61822" lon="5.22074">
        <ele>1144.39679744</ele>
        <time>2016-07-24T08:42:40.008Z</time>
      </trkpt>
      <trkpt lat="44.61807" lon="5.22071">
        <ele>1141.1971968</ele>
        <time>2016-07-24T08:42:48.007Z</time>
      </trkpt>
      <trkpt lat="44.61788" lon="5.22066">
        <ele>1140.24969984</ele>
        <time>2016-07-24T08:42:56.003Z</time>
      </trkpt>
      <trkpt lat="44.61769" lon="5.22051">
        <ele>1139</ele>
        <time>2016-07-24T08:43:04.003Z</time>
      </trkpt>
      <trkpt lat="44.61749" lon="5.22042">
        <ele>1139.664058329</ele>
        <time>2016-07-24T08:43:12.014Z</time>
      </trkpt>
      <trkpt lat="44.6173" lon="5.22032">
        <ele>1141</ele>
        <time>2016-07-24T08:43:20.009Z</time>
      </trkpt>
      <trkpt lat="44.6171" lon="5.22024">
        <ele>1141</ele>
        <time>2016-07-24T08:43:28.017Z</time>
      </trkpt>
      <trkpt lat="44.61688" lon="5.22009">
        <ele>1139.49819904</ele>
        <time>2016-07-24T08:43:36.009Z</time>
      </trkpt>
      <trkpt lat="44.61659" lon="5.22006">
        <ele>1134.59759872</ele>
        <time>2016-07-24T08:43:44.003Z</time>
      </trkpt>
      <trkpt lat="44.6163" lon="5.22009">
        <ele>1128.5472</ele>
        <time>2016-07-24T08:43:52.004Z</time>
      </trkpt>
      <trkpt lat="44.61605" lon="5.22011">
        <ele>1123.84949888</ele>
        <time>2016-07-24T08:44:00.005Z</time>
      </trkpt>
      <trkpt lat="44.61576" lon="5.22018">
        <ele>1123.04879872</ele>
        <time>2016-07-24T08:44:08.012Z</time>
      </trkpt>
      <trkpt lat="44.61543" lon="5.22021">
        <ele>1117.74439552</ele>
        <time>2016-07-24T08:44:16.008Z</time>
      </trkpt>
      <trkpt lat="44.61516" lon="5.22015">
        <ele>1112.6957952</ele>
        <time>2016-07-24T08:44:24.007Z</time>
      </trkpt>
      <trkpt lat="44.61493" lon="5.22025">
        <ele>1109.64899968</ele>
        <time>2016-07-24T08:44:32.010Z</time>
      </trkpt>
      <trkpt lat="44.61471" lon="5.22038">
        <ele>1108.8500992</ele>
        <time>2016-07-24T08:44:39.999Z</time>
      </trkpt>
      <trkpt lat="44.61439" lon="5.22056">
        <ele>1105.89999616</ele>
        <time>2016-07-24T08:44:52.000Z</time>
      </trkpt>
      <trkpt lat="44.61409" lon="5.22066">
        <ele>1101.54699904</ele>
        <time>2016-07-24T08:45:00.010Z</time>
      </trkpt>
      <trkpt lat="44.61394" lon="5.22076">
        <ele>1099.14969856</ele>
        <time>2016-07-24T08:45:08.001Z</time>
      </trkpt>
      <trkpt lat="44.6137" lon="5.22093">
        <ele>1099</ele>
        <time>2016-07-24T08:45:16.009Z</time>
      </trkpt>
      <trkpt lat="44.61351" lon="5.22117">
        <ele>1098.09819904</ele>
        <time>2016-07-24T08:45:23.009Z</time>
      </trkpt>
      <trkpt lat="44.61345" lon="5.2214">
        <ele>1095.49639424</ele>
        <time>2016-07-24T08:45:31.006Z</time>
      </trkpt>
      <trkpt lat="44.61336" lon="5.22169">
        <ele>1090.89819904</ele>
        <time>2016-07-24T08:45:39.009Z</time>
      </trkpt>
      <trkpt lat="44.61332" lon="5.22202">
        <ele>1089.29959936</ele>
        <time>2016-07-24T08:45:47.002Z</time>
      </trkpt>
      <trkpt lat="44.6134" lon="5.22228">
        <ele>1089</ele>
        <time>2016-07-24T08:45:55.012Z</time>
      </trkpt>
      <trkpt lat="44.61343" lon="5.22257">
        <ele>1087.19599872</ele>
        <time>2016-07-24T08:46:03.010Z</time>
      </trkpt>
      <trkpt lat="44.6136" lon="5.22285">
        <ele>1085</ele>
        <time>2016-07-24T08:46:11.006Z</time>
      </trkpt>
      <trkpt lat="44.61389" lon="5.22309">
        <ele>1085.45080064</ele>
        <time>2016-07-24T08:46:23.008Z</time>
      </trkpt>
      <trkpt lat="44.6141" lon="5.22324">
        <ele>1086</ele>
        <time>2016-07-24T08:46:31.011Z</time>
      </trkpt>
      <trkpt lat="44.61423" lon="5.2235">
        <ele>1086</ele>
        <time>2016-07-24T08:46:39.007Z</time>
      </trkpt>
      <trkpt lat="44.61439" lon="5.22379">
        <ele>1086</ele>
        <time>2016-07-24T08:46:51.007Z</time>
      </trkpt>
      <trkpt lat="44.61411" lon="5.2239">
        <ele>1085.7444992</ele>
        <time>2016-07-24T08:46:59.011Z</time>
      </trkpt>
      <trkpt lat="44.61386" lon="5.22379">
        <ele>1081.7454976</ele>
        <time>2016-07-24T08:47:07.009Z</time>
      </trkpt>
      <trkpt lat="44.61364" lon="5.22374">
        <ele>1079.69979904</ele>
        <time>2016-07-24T08:47:15.001Z</time>
      </trkpt>
      <trkpt lat="44.61339" lon="5.22378">
        <ele>1076.7484992</ele>
        <time>2016-07-24T08:47:23.003Z</time>
      </trkpt>
      <trkpt lat="44.61315" lon="5.22381">
        <ele>1073.24909952</ele>
        <time>2016-07-24T08:47:31.003Z</time>
      </trkpt>
      <trkpt lat="44.6129" lon="5.22381">
        <ele>1070.79559936</ele>
        <time>2016-07-24T08:47:39.011Z</time>
      </trkpt>
      <trkpt lat="44.61265" lon="5.22385">
        <ele>1067.59839488</ele>
        <time>2016-07-24T08:47:47.004Z</time>
      </trkpt>
      <trkpt lat="44.61238" lon="5.2239">
        <ele>1063.7522492686</ele>
        <time>2016-07-24T08:47:55.002Z</time>
      </trkpt>
      <trkpt lat="44.61218" lon="5.22416">
        <ele>1060.2026072466</ele>
        <time>2016-07-24T08:48:03.010Z</time>
      </trkpt>
      <trkpt lat="44.61198" lon="5.22442">
        <ele>1058</ele>
        <time>2016-07-24T08:48:11.009Z</time>
      </trkpt>
      <trkpt lat="44.61187" lon="5.2248">
        <ele>1055.7474944</ele>
        <time>2016-07-24T08:48:23.005Z</time>
      </trkpt>
      <trkpt lat="44.61185" lon="5.22521">
        <ele>1051.01819904</ele>
        <time>2016-07-24T08:48:35.106Z</time>
      </trkpt>
      <trkpt lat="44.61162" lon="5.22545">
        <ele>1050</ele>
        <time>2016-07-24T08:48:43.009Z</time>
      </trkpt>
      <trkpt lat="44.61142" lon="5.22564">
        <ele>1049.4976</ele>
        <time>2016-07-24T08:48:51.012Z</time>
      </trkpt>
      <trkpt lat="44.61123" lon="5.22584">
        <ele>1047.94909952</ele>
        <time>2016-07-24T08:48:59.009Z</time>
      </trkpt>
      <trkpt lat="44.61109" lon="5.22609">
        <ele>1047.14959872</ele>
        <time>2016-07-24T08:49:07.004Z</time>
      </trkpt>
      <trkpt lat="44.61095" lon="5.22639">
        <ele>1046.34869888</ele>
        <time>2016-07-24T08:49:15.013Z</time>
      </trkpt>
      <trkpt lat="44.61093" lon="5.22679">
        <ele>1045.14889984</ele>
        <time>2016-07-24T08:49:27.011Z</time>
      </trkpt>
      <trkpt lat="44.61081" lon="5.22707">
        <ele>1044.34939904</ele>
        <time>2016-07-24T08:49:35.006Z</time>
      </trkpt>
      <trkpt lat="44.61075" lon="5.22736">
        <ele>1043.54939904</ele>
        <time>2016-07-24T08:49:43.006Z</time>
      </trkpt>
      <trkpt lat="44.61064" lon="5.22765">
        <ele>1043</ele>
        <time>2016-07-24T08:49:51.002Z</time>
      </trkpt>
      <trkpt lat="44.61047" lon="5.22772">
        <ele>1042.94949888</ele>
        <time>2016-07-24T08:49:59.005Z</time>
      </trkpt>
      <trkpt lat="44.61026" lon="5.22779">
        <ele>1042.14869888</ele>
        <time>2016-07-24T08:50:07.013Z</time>
      </trkpt>
      <trkpt lat="44.61017" lon="5.22804">
        <ele>1042</ele>
        <time>2016-07-24T08:50:15.006Z</time>
      </trkpt>
      <trkpt lat="44.61012" lon="5.22842">
        <ele>1042</ele>
        <time>2016-07-24T08:50:27.009Z</time>
      </trkpt>
      <trkpt lat="44.60988" lon="5.22856">
        <ele>1042</ele>
        <time>2016-07-24T08:50:35.008Z</time>
      </trkpt>
      <trkpt lat="44.60967" lon="5.22876">
        <ele>1042</ele>
        <time>2016-07-24T08:50:43.005Z</time>
      </trkpt>
      <trkpt lat="44.60959" lon="5.22905">
        <ele>1041.74909952</ele>
        <time>2016-07-24T08:50:51.009Z</time>
      </trkpt>
      <trkpt lat="44.60954" lon="5.22937">
        <ele>1040.89839872</ele>
        <time>2016-07-24T08:50:59.008Z</time>
      </trkpt>
      <trkpt lat="44.60946" lon="5.22964">
        <ele>1039.29939968</ele>
        <time>2016-07-24T08:51:07.003Z</time>
      </trkpt>
      <trkpt lat="44.60931" lon="5.22996">
        <ele>1039</ele>
        <time>2016-07-24T08:51:15.000Z</time>
      </trkpt>
      <trkpt lat="44.60912" lon="5.23022">
        <ele>1038.5492992</ele>
        <time>2016-07-24T08:51:23.007Z</time>
      </trkpt>
      <trkpt lat="44.60887" lon="5.23041">
        <ele>1037.49879808</ele>
        <time>2016-07-24T08:51:31.006Z</time>
      </trkpt>
      <trkpt lat="44.60878" lon="5.2306">
        <ele>1035.94909952</ele>
        <time>2016-07-24T08:51:39.009Z</time>
      </trkpt>
      <trkpt lat="44.60876" lon="5.23085">
        <ele>1035.1488</ele>
        <time>2016-07-24T08:51:47.012Z</time>
      </trkpt>
      <trkpt lat="44.60878" lon="5.2312">
        <ele>1034.34809984</ele>
        <time>2016-07-24T08:51:55.019Z</time>
      </trkpt>
      <trkpt lat="44.60882" lon="5.23154">
        <ele>1033.09919744</ele>
        <time>2016-07-24T08:52:03.004Z</time>
      </trkpt>
      <trkpt lat="44.60875" lon="5.23183">
        <ele>1032</ele>
        <time>2016-07-24T08:52:11.009Z</time>
      </trkpt>
      <trkpt lat="44.60889" lon="5.23211">
        <ele>1032.05090048</ele>
        <time>2016-07-24T08:52:19.009Z</time>
      </trkpt>
      <trkpt lat="44.60887" lon="5.23245">
        <ele>1032.85100032</ele>
        <time>2016-07-24T08:52:27.010Z</time>
      </trkpt>
      <trkpt lat="44.60873" lon="5.23271">
        <ele>1033</ele>
        <time>2016-07-24T08:52:35.005Z</time>
      </trkpt>
      <trkpt lat="44.60851" lon="5.23295">
        <ele>1032.54959872</ele>
        <time>2016-07-24T08:52:43.004Z</time>
      </trkpt>
      <trkpt lat="44.60832" lon="5.23318">
        <ele>1031.49739776</ele>
        <time>2016-07-24T08:52:51.013Z</time>
      </trkpt>
      <trkpt lat="44.60815" lon="5.23347">
        <ele>1029.8725684846</ele>
        <time>2016-07-24T08:52:59.011Z</time>
      </trkpt>
      <trkpt lat="44.60814" lon="5.23379">
        <ele>1029</ele>
        <time>2016-07-24T08:53:07.008Z</time>
      </trkpt>
      <trkpt lat="44.6081" lon="5.23409">
        <ele>1029</ele>
        <time>2016-07-24T08:53:15.010Z</time>
      </trkpt>
      <trkpt lat="44.60817" lon="5.23445">
        <ele>1029</ele>
        <time>2016-07-24T08:53:23.007Z</time>
      </trkpt>
      <trkpt lat="44.60812" lon="5.23478">
        <ele>1028.74889984</ele>
        <time>2016-07-24T08:53:31.011Z</time>
      </trkpt>
      <trkpt lat="44.60809" lon="5.2351">
        <ele>1027.89919744</ele>
        <time>2016-07-24T08:53:39.004Z</time>
      </trkpt>
      <trkpt lat="44.60808" lon="5.23554">
        <ele>1025.74889984</ele>
        <time>2016-07-24T08:53:51.011Z</time>
      </trkpt>
      <trkpt lat="44.60795" lon="5.23579">
        <ele>1024.746496</ele>
        <time>2016-07-24T08:53:59.007Z</time>
      </trkpt>
      <trkpt lat="44.60772" lon="5.23597">
        <ele>1020.7474944</ele>
        <time>2016-07-24T08:54:07.005Z</time>
      </trkpt>
      <trkpt lat="44.60748" lon="5.23614">
        <ele>1018.04819712</ele>
        <time>2016-07-24T08:54:15.006Z</time>
      </trkpt>
      <trkpt lat="44.60724" lon="5.23638">
        <ele>1016.54989952</ele>
        <time>2016-07-24T08:54:23.001Z</time>
      </trkpt>
      <trkpt lat="44.60705" lon="5.23664">
        <ele>1014.99319808</ele>
        <time>2016-07-24T08:54:31.017Z</time>
      </trkpt>
      <trkpt lat="44.60689" lon="5.23689">
        <ele>1011.8468528142</ele>
        <time>2016-07-24T08:54:39.011Z</time>
      </trkpt>
      <trkpt lat="44.60672" lon="5.23705">
        <ele>1009.449851157</ele>
        <time>2016-07-24T08:54:47.009Z</time>
      </trkpt>
      <trkpt lat="44.60656" lon="5.23727">
        <ele>1007.0477482741</ele>
        <time>2016-07-24T08:54:55.011Z</time>
      </trkpt>
      <trkpt lat="44.60636" lon="5.23753">
        <ele>1004.19439616</ele>
        <time>2016-07-24T08:55:03.014Z</time>
      </trkpt>
      <trkpt lat="44.60621" lon="5.23779">
        <ele>1002</ele>
        <time>2016-07-24T08:55:11.017Z</time>
      </trkpt>
      <trkpt lat="44.60609" lon="5.2381">
        <ele>1001.89819904</ele>
        <time>2016-07-24T08:55:19.009Z</time>
      </trkpt>
      <trkpt lat="44.60591" lon="5.23836">
        <ele>1000.2985984</ele>
        <time>2016-07-24T08:55:27.007Z</time>
      </trkpt>
      <trkpt lat="44.60578" lon="5.23877">
        <ele>994.89679872</ele>
        <time>2016-07-24T08:55:39.016Z</time>
      </trkpt>
      <trkpt lat="44.60564" lon="5.23919">
        <ele>992.74989952</ele>
        <time>2016-07-24T08:55:51.001Z</time>
      </trkpt>
      <trkpt lat="44.60539" lon="5.23931">
        <ele>991.7444992</ele>
        <time>2016-07-24T08:55:59.011Z</time>
      </trkpt>
      <trkpt lat="44.60513" lon="5.2394">
        <ele>986.74919936</ele>
        <time>2016-07-24T08:56:11.008Z</time>
      </trkpt>
      <trkpt lat="44.60495" lon="5.23965">
        <ele>985.79599872</ele>
        <time>2016-07-24T08:56:19.010Z</time>
      </trkpt>
      <trkpt lat="44.60471" lon="5.2397">
        <ele>982.59679744</ele>
        <time>2016-07-24T08:56:27.008Z</time>
      </trkpt>
      <trkpt lat="44.60478" lon="5.23989">
        <ele>980.7484992</ele>
        <time>2016-07-24T08:56:39.003Z</time>
      </trkpt>
      <trkpt lat="44.60497" lon="5.23971">
        <ele>976.7459968</ele>
        <time>2016-07-24T08:56:47.008Z</time>
      </trkpt>
      <trkpt lat="44.60521" lon="5.23959">
        <ele>975.34909952</ele>
        <time>2016-07-24T08:56:55.009Z</time>
      </trkpt>
      <trkpt lat="44.60548" lon="5.23953">
        <ele>973.64699904</ele>
        <time>2016-07-24T08:57:03.010Z</time>
      </trkpt>
      <trkpt lat="44.60568" lon="5.2395">
        <ele>971.74939904</ele>
        <time>2016-07-24T08:57:11.006Z</time>
      </trkpt>
      <trkpt lat="44.60601" lon="5.23953">
        <ele>970.69819904</ele>
        <time>2016-07-24T08:57:20.009Z</time>
      </trkpt>
      <trkpt lat="44.60621" lon="5.23965">
        <ele>969.09759744</ele>
        <time>2016-07-24T08:57:28.012Z</time>
      </trkpt>
      <trkpt lat="44.6061" lon="5.23997">
        <ele>965.2439936</ele>
        <time>2016-07-24T08:57:36.012Z</time>
      </trkpt>
      <trkpt lat="44.6058" lon="5.24017">
        <ele>961.79439616</ele>
        <time>2016-07-24T08:57:44.014Z</time>
      </trkpt>
      <trkpt lat="44.60557" lon="5.24036">
        <ele>957.74729856</ele>
        <time>2016-07-24T08:57:56.009Z</time>
      </trkpt>
      <trkpt lat="44.60539" lon="5.24069">
        <ele>953.95508767089</ele>
        <time>2016-07-24T08:58:04.005Z</time>
      </trkpt>
      <trkpt lat="44.6052" lon="5.24091">
        <ele>952.33738381451</ele>
        <time>2016-07-24T08:58:12.007Z</time>
      </trkpt>
      <trkpt lat="44.60535" lon="5.24076">
        <ele>950.84879872</ele>
        <time>2016-07-24T08:58:20.012Z</time>
      </trkpt>
      <trkpt lat="44.60562" lon="5.24068">
        <ele>950.04899968</ele>
        <time>2016-07-24T08:58:28.010Z</time>
      </trkpt>
      <trkpt lat="44.60584" lon="5.24091">
        <ele>945.49039616</ele>
        <time>2016-07-24T08:58:36.016Z</time>
      </trkpt>
      <trkpt lat="44.60568" lon="5.24116">
        <ele>941.2494976</ele>
        <time>2016-07-24T08:58:44.001Z</time>
      </trkpt>
      <trkpt lat="44.60552" lon="5.24136">
        <ele>937.2454976</ele>
        <time>2016-07-24T08:58:52.009Z</time>
      </trkpt>
      <trkpt lat="44.60519" lon="5.24161">
        <ele>933.84899968</ele>
        <time>2016-07-24T08:59:00.010Z</time>
      </trkpt>
      <trkpt lat="44.60493" lon="5.24183">
        <ele>933.0492992</ele>
        <time>2016-07-24T08:59:08.007Z</time>
      </trkpt>
      <trkpt lat="44.60468" lon="5.242">
        <ele>929.2439936</ele>
        <time>2016-07-24T08:59:16.012Z</time>
      </trkpt>
      <trkpt lat="44.60454" lon="5.2423">
        <ele>925.7984</ele>
        <time>2016-07-24T08:59:24.004Z</time>
      </trkpt>
      <trkpt lat="44.60444" lon="5.24263">
        <ele>922.2459968</ele>
        <time>2016-07-24T08:59:32.008Z</time>
      </trkpt>
      <trkpt lat="44.60418" lon="5.24279">
        <ele>918.3984</ele>
        <time>2016-07-24T08:59:40.004Z</time>
      </trkpt>
      <trkpt lat="44.6039" lon="5.24276">
        <ele>915.1939968</ele>
        <time>2016-07-24T08:59:48.015Z</time>
      </trkpt>
      <trkpt lat="44.60362" lon="5.24281">
        <ele>913.4992</ele>
        <time>2016-07-24T08:59:56.004Z</time>
      </trkpt>
      <trkpt lat="44.60337" lon="5.24301">
        <ele>910.79759616</ele>
        <time>2016-07-24T09:00:04.006Z</time>
      </trkpt>
      <trkpt lat="44.60308" lon="5.24304">
        <ele>907.94894965935</ele>
        <time>2016-07-24T09:00:12.007Z</time>
      </trkpt>
      <trkpt lat="44.60286" lon="5.24291">
        <ele>905.70070009277</ele>
        <time>2016-07-24T09:00:20.005Z</time>
      </trkpt>
      <trkpt lat="44.60258" lon="5.24284">
        <ele>904.09729546887</ele>
        <time>2016-07-24T09:00:28.014Z</time>
      </trkpt>
      <trkpt lat="44.60251" lon="5.24312">
        <ele>901.69719808</ele>
        <time>2016-07-24T09:00:40.014Z</time>
      </trkpt>
      <trkpt lat="44.6026" lon="5.2434">
        <ele>900.09759744</ele>
        <time>2016-07-24T09:00:48.012Z</time>
      </trkpt>
      <trkpt lat="44.60273" lon="5.24365">
        <ele>898.49759744</ele>
        <time>2016-07-24T09:00:56.012Z</time>
      </trkpt>
      <trkpt lat="44.60281" lon="5.24397">
        <ele>897.44949888</ele>
        <time>2016-07-24T09:01:04.005Z</time>
      </trkpt>
      <trkpt lat="44.60283" lon="5.24435">
        <ele>896.64889984</ele>
        <time>2016-07-24T09:01:12.011Z</time>
      </trkpt>
      <trkpt lat="44.60274" lon="5.24465">
        <ele>895.69909926959</ele>
        <time>2016-07-24T09:01:20.006Z</time>
      </trkpt>
      <trkpt lat="44.60259" lon="5.24492">
        <ele>894.10130020255</ele>
        <time>2016-07-24T09:01:28.003Z</time>
      </trkpt>
      <trkpt lat="44.60235" lon="5.24511">
        <ele>892.49909797711</ele>
        <time>2016-07-24T09:01:36.007Z</time>
      </trkpt>
      <trkpt lat="44.60212" lon="5.24501">
        <ele>891.44979968</ele>
        <time>2016-07-24T09:01:44.002Z</time>
      </trkpt>
      <trkpt lat="44.60186" lon="5.24507">
        <ele>889.59639808</ele>
        <time>2016-07-24T09:01:52.009Z</time>
      </trkpt>
      <trkpt lat="44.6016" lon="5.24514">
        <ele>886.69979904</ele>
        <time>2016-07-24T09:02:00.001Z</time>
      </trkpt>
      <trkpt lat="44.60133" lon="5.24523">
        <ele>885.09779968</ele>
        <time>2016-07-24T09:02:08.011Z</time>
      </trkpt>
      <trkpt lat="44.60111" lon="5.24521">
        <ele>884.24939904</ele>
        <time>2016-07-24T09:02:16.006Z</time>
      </trkpt>
      <trkpt lat="44.6009" lon="5.24523">
        <ele>883.44909952</ele>
        <time>2016-07-24T09:02:24.009Z</time>
      </trkpt>
      <trkpt lat="44.60066" lon="5.24525">
        <ele>882.64909952</ele>
        <time>2016-07-24T09:02:32.009Z</time>
      </trkpt>
      <trkpt lat="44.60041" lon="5.24528">
        <ele>881.72247178373</ele>
        <time>2016-07-24T09:02:40.009Z</time>
      </trkpt>
      <trkpt lat="44.60026" lon="5.24537">
        <ele>877.27307882331</ele>
        <time>2016-07-24T09:02:48.009Z</time>
      </trkpt>
      <trkpt lat="44.60008" lon="5.24563">
        <ele>874.74729856</ele>
        <time>2016-07-24T09:02:56.009Z</time>
      </trkpt>
      <trkpt lat="44.5999" lon="5.24585">
        <ele>872.89719808</ele>
        <time>2016-07-24T09:03:04.014Z</time>
      </trkpt>
      <trkpt lat="44.5997" lon="5.24598">
        <ele>871.2985984</ele>
        <time>2016-07-24T09:03:12.007Z</time>
      </trkpt>
      <trkpt lat="44.59941" lon="5.24609">
        <ele>869.84939904</ele>
        <time>2016-07-24T09:03:20.006Z</time>
      </trkpt>
      <trkpt lat="44.59917" lon="5.24604">
        <ele>869.04859904</ele>
        <time>2016-07-24T09:03:28.014Z</time>
      </trkpt>
      <trkpt lat="44.59897" lon="5.24586">
        <ele>867.4992</ele>
        <time>2016-07-24T09:03:36.004Z</time>
      </trkpt>
      <trkpt lat="44.59877" lon="5.24593">
        <ele>865.8985984</ele>
        <time>2016-07-24T09:03:44.007Z</time>
      </trkpt>
      <trkpt lat="44.59858" lon="5.24615">
        <ele>863.59959808</ele>
        <time>2016-07-24T09:03:52.001Z</time>
      </trkpt>
      <trkpt lat="44.59842" lon="5.24642">
        <ele>860.54939904</ele>
        <time>2016-07-24T09:04:00.002Z</time>
      </trkpt>
      <trkpt lat="44.59822" lon="5.24669">
        <ele>858.14729856</ele>
        <time>2016-07-24T09:04:08.009Z</time>
      </trkpt>
      <trkpt lat="44.59816" lon="5.2468">
        <ele>857.24869888</ele>
        <time>2016-07-24T09:04:16.013Z</time>
      </trkpt>
      <trkpt lat="44.59806" lon="5.24667">
        <ele>857.15144904556</ele>
        <time>2016-07-24T09:04:40.016Z</time>
      </trkpt>
      <trkpt lat="44.598" lon="5.24653">
        <ele>857.85004961434</ele>
        <time>2016-07-24T09:04:47.009Z</time>
      </trkpt>
      <trkpt lat="44.59794" lon="5.24642">
        <ele>858</ele>
        <time>2016-07-24T09:04:55.009Z</time>
      </trkpt>
      <trkpt lat="44.59783" lon="5.24626">
        <ele>858.85080064</ele>
        <time>2016-07-24T09:05:07.008Z</time>
      </trkpt>
      <trkpt lat="44.59778" lon="5.24609">
        <ele>859.65060096</ele>
        <time>2016-07-24T09:05:15.006Z</time>
      </trkpt>
      <trkpt lat="44.5977" lon="5.24592">
        <ele>859.1492992</ele>
        <time>2016-07-24T09:05:27.007Z</time>
      </trkpt>
      <trkpt lat="44.59764" lon="5.24579">
        <ele>859</ele>
        <time>2016-07-24T09:05:35.009Z</time>
      </trkpt>
      <trkpt lat="44.59759" lon="5.24563">
        <ele>859</ele>
        <time>2016-07-24T09:05:43.001Z</time>
      </trkpt>
      <trkpt lat="44.59751" lon="5.24552">
        <ele>859</ele>
        <time>2016-07-24T09:05:51.012Z</time>
      </trkpt>
      <trkpt lat="44.59747" lon="5.24536">
        <ele>858.94959872</ele>
        <time>2016-07-24T09:05:59.004Z</time>
      </trkpt>
      <trkpt lat="44.59743" lon="5.2452">
        <ele>858.14859904</ele>
        <time>2016-07-24T09:06:07.014Z</time>
      </trkpt>
      <trkpt lat="44.59735" lon="5.24505">
        <ele>859</ele>
        <time>2016-07-24T09:06:19.010Z</time>
      </trkpt>
      <trkpt lat="44.59732" lon="5.24491">
        <ele>857.7449984</ele>
        <time>2016-07-24T09:06:31.010Z</time>
      </trkpt>
      <trkpt lat="44.59724" lon="5.24477">
        <ele>853.89719808</ele>
        <time>2016-07-24T09:06:39.014Z</time>
      </trkpt>
      <trkpt lat="44.5971" lon="5.24468">
        <ele>852.29899776</ele>
        <time>2016-07-24T09:06:47.005Z</time>
      </trkpt>
      <trkpt lat="44.59701" lon="5.24454">
        <ele>852</ele>
        <time>2016-07-24T09:06:55.016Z</time>
      </trkpt>
      <trkpt lat="44.59691" lon="5.24427">
        <ele>851.24909952</ele>
        <time>2016-07-24T09:07:06.009Z</time>
      </trkpt>
      <trkpt lat="44.59679" lon="5.24402">
        <ele>851</ele>
        <time>2016-07-24T09:07:18.009Z</time>
      </trkpt>
      <trkpt lat="44.5966" lon="5.24407">
        <ele>851</ele>
        <time>2016-07-24T09:07:26.009Z</time>
      </trkpt>
      <trkpt lat="44.59642" lon="5.24404">
        <ele>851</ele>
        <time>2016-07-24T09:07:34.009Z</time>
      </trkpt>
      <trkpt lat="44.59631" lon="5.24395">
        <ele>851.70180096</ele>
        <time>2016-07-24T09:07:42.009Z</time>
      </trkpt>
      <trkpt lat="44.59623" lon="5.24388">
        <ele>853.90540288</ele>
        <time>2016-07-24T09:07:50.009Z</time>
      </trkpt>
      <trkpt lat="44.59623" lon="5.24375">
        <ele>862.00360192</ele>
        <time>2016-07-24T09:08:06.009Z</time>
      </trkpt>
      <trkpt lat="44.59625" lon="5.24365">
        <ele>864.90180096</ele>
        <time>2016-07-24T09:08:18.009Z</time>
      </trkpt>
      <trkpt lat="44.59636" lon="5.24359">
        <ele>868.00360192</ele>
        <time>2016-07-24T09:08:26.009Z</time>
      </trkpt>
      <trkpt lat="44.5965" lon="5.24349">
        <ele>870.65270144</ele>
        <time>2016-07-24T09:08:34.009Z</time>
      </trkpt>
      <trkpt lat="44.59663" lon="5.2435">
        <ele>873.05270144</ele>
        <time>2016-07-24T09:08:42.009Z</time>
      </trkpt>
      <trkpt lat="44.59675" lon="5.24343">
        <ele>876.65270144</ele>
        <time>2016-07-24T09:08:54.009Z</time>
      </trkpt>
      <trkpt lat="44.59665" lon="5.24338">
        <ele>879.50180096</ele>
        <time>2016-07-24T09:09:06.009Z</time>
      </trkpt>
      <trkpt lat="44.59657" lon="5.2433">
        <ele>882.20360192</ele>
        <time>2016-07-24T09:09:14.009Z</time>
      </trkpt>
      <trkpt lat="44.59642" lon="5.24324">
        <ele>884</ele>
        <time>2016-07-24T09:09:22.009Z</time>
      </trkpt>
      <trkpt lat="44.59651" lon="5.24316">
        <ele>884.95090048</ele>
        <time>2016-07-24T09:09:38.009Z</time>
      </trkpt>
      <trkpt lat="44.59659" lon="5.24307">
        <ele>890.25630336</ele>
        <time>2016-07-24T09:09:46.009Z</time>
      </trkpt>
      <trkpt lat="44.59648" lon="5.243">
        <ele>893.90180096</ele>
        <time>2016-07-24T09:09:58.009Z</time>
      </trkpt>
      <trkpt lat="44.59635" lon="5.24297">
        <ele>897.30180096</ele>
        <time>2016-07-24T09:10:10.009Z</time>
      </trkpt>
      <trkpt lat="44.59623" lon="5.24291">
        <ele>900.05270144</ele>
        <time>2016-07-24T09:10:22.009Z</time>
      </trkpt>
      <trkpt lat="44.59613" lon="5.2429">
        <ele>902.60360192</ele>
        <time>2016-07-24T09:10:30.009Z</time>
      </trkpt>
      <trkpt lat="44.596" lon="5.24287">
        <ele>906.70109918776</ele>
        <time>2016-07-24T09:10:42.009Z</time>
      </trkpt>
      <trkpt lat="44.59592" lon="5.24274">
        <ele>909.65135149679</ele>
        <time>2016-07-24T09:10:54.009Z</time>
      </trkpt>
      <trkpt lat="44.59577" lon="5.24261">
        <ele>914.80360192</ele>
        <time>2016-07-24T09:11:08.009Z</time>
      </trkpt>
      <trkpt lat="44.59567" lon="5.24251">
        <ele>920.10180096</ele>
        <time>2016-07-24T09:11:24.009Z</time>
      </trkpt>
      <trkpt lat="44.59561" lon="5.24235">
        <ele>923.25090048</ele>
        <time>2016-07-24T09:11:36.003Z</time>
      </trkpt>
      <trkpt lat="44.59573" lon="5.24226">
        <ele>928.4016</ele>
        <time>2016-07-24T09:11:52.004Z</time>
      </trkpt>
      <trkpt lat="44.59581" lon="5.24215">
        <ele>932.10180096</ele>
        <time>2016-07-24T09:12:04.009Z</time>
      </trkpt>
      <trkpt lat="44.5959" lon="5.24208">
        <ele>934.05060096</ele>
        <time>2016-07-24T09:12:12.002Z</time>
      </trkpt>
      <trkpt lat="44.59601" lon="5.242">
        <ele>938.20240384</ele>
        <time>2016-07-24T09:12:24.006Z</time>
      </trkpt>
      <trkpt lat="44.59606" lon="5.24186">
        <ele>940.35080064</ele>
        <time>2016-07-24T09:12:32.008Z</time>
      </trkpt>
      <trkpt lat="44.59603" lon="5.24172">
        <ele>941.05498283802</ele>
        <time>2016-07-24T09:12:40.010Z</time>
      </trkpt>
      <trkpt lat="44.59599" lon="5.24151">
        <ele>943.70120192</ele>
        <time>2016-07-24T09:12:52.006Z</time>
      </trkpt>
      <trkpt lat="44.5959" lon="5.2413">
        <ele>945.15030016</ele>
        <time>2016-07-24T09:13:00.003Z</time>
      </trkpt>
      <trkpt lat="44.59589" lon="5.241">
        <ele>945.95060096</ele>
        <time>2016-07-24T09:13:08.006Z</time>
      </trkpt>
      <trkpt lat="44.59588" lon="5.24075">
        <ele>946</ele>
        <time>2016-07-24T09:13:16.010Z</time>
      </trkpt>
      <trkpt lat="44.59573" lon="5.24074">
        <ele>946.55080064</ele>
        <time>2016-07-24T09:13:24.008Z</time>
      </trkpt>
      <trkpt lat="44.59562" lon="5.24056">
        <ele>947.75010048</ele>
        <time>2016-07-24T09:13:36.001Z</time>
      </trkpt>
      <trkpt lat="44.59551" lon="5.24041">
        <ele>948.55140096</ele>
        <time>2016-07-24T09:13:44.014Z</time>
      </trkpt>
      <trkpt lat="44.59541" lon="5.24045">
        <ele>949</ele>
        <time>2016-07-24T09:13:52.012Z</time>
      </trkpt>
      <trkpt lat="44.59529" lon="5.24018">
        <ele>950.10180096</ele>
        <time>2016-07-24T09:14:04.009Z</time>
      </trkpt>
      <trkpt lat="44.59518" lon="5.2402">
        <ele>952.40200448</ele>
        <time>2016-07-24T09:14:12.005Z</time>
      </trkpt>
      <trkpt lat="44.59506" lon="5.24008">
        <ele>955.15090048</ele>
        <time>2016-07-24T09:14:20.009Z</time>
      </trkpt>
      <trkpt lat="44.59496" lon="5.24012">
        <ele>955.95090048</ele>
        <time>2016-07-24T09:14:28.009Z</time>
      </trkpt>
      <trkpt lat="44.59487" lon="5.23999">
        <ele>956</ele>
        <time>2016-07-24T09:14:36.006Z</time>
      </trkpt>
      <trkpt lat="44.59466" lon="5.23997">
        <ele>956</ele>
        <time>2016-07-24T09:14:44.000Z</time>
      </trkpt>
      <trkpt lat="44.59449" lon="5.23995">
        <ele>955.64909952</ele>
        <time>2016-07-24T09:14:52.009Z</time>
      </trkpt>
      <trkpt lat="44.5944" lon="5.23986">
        <ele>956.65060096</ele>
        <time>2016-07-24T09:15:04.002Z</time>
      </trkpt>
      <trkpt lat="44.59427" lon="5.23968">
        <ele>958</ele>
        <time>2016-07-24T09:15:16.010Z</time>
      </trkpt>
      <trkpt lat="44.59416" lon="5.23953">
        <ele>958.55060096</ele>
        <time>2016-07-24T09:15:24.006Z</time>
      </trkpt>
      <trkpt lat="44.59406" lon="5.23943">
        <ele>959.35010048</ele>
        <time>2016-07-24T09:15:32.001Z</time>
      </trkpt>
      <trkpt lat="44.59391" lon="5.23919">
        <ele>960.15180032</ele>
        <time>2016-07-24T09:15:40.018Z</time>
      </trkpt>
      <trkpt lat="44.5938" lon="5.23902">
        <ele>960.95000064</ele>
        <time>2016-07-24T09:15:48.000Z</time>
      </trkpt>
      <trkpt lat="44.59362" lon="5.2387">
        <ele>960.84979968</ele>
        <time>2016-07-24T09:16:00.002Z</time>
      </trkpt>
      <trkpt lat="44.59336" lon="5.23871">
        <ele>960.70120192</ele>
        <time>2016-07-24T09:16:12.006Z</time>
      </trkpt>
      <trkpt lat="44.5933" lon="5.23854">
        <ele>962.35090048</ele>
        <time>2016-07-24T09:16:22.009Z</time>
      </trkpt>
      <trkpt lat="44.59326" lon="5.23832">
        <ele>964.30180096</ele>
        <time>2016-07-24T09:16:35.009Z</time>
      </trkpt>
      <trkpt lat="44.59318" lon="5.23821">
        <ele>967.5521024</ele>
        <time>2016-07-24T09:16:47.007Z</time>
      </trkpt>
      <trkpt lat="44.59318" lon="5.23807">
        <ele>969.95240192</ele>
        <time>2016-07-24T09:16:55.008Z</time>
      </trkpt>
      <trkpt lat="44.59307" lon="5.23794">
        <ele>973.75939968</ele>
        <time>2016-07-24T09:17:10.906Z</time>
      </trkpt>
      <trkpt lat="44.59297" lon="5.23787">
        <ele>974.80400128</ele>
        <time>2016-07-24T09:17:23.010Z</time>
      </trkpt>
      <trkpt lat="44.5928" lon="5.23782">
        <ele>976.3492992</ele>
        <time>2016-07-24T09:17:35.007Z</time>
      </trkpt>
      <trkpt lat="44.59263" lon="5.23777">
        <ele>975.5488</ele>
        <time>2016-07-24T09:17:43.012Z</time>
      </trkpt>
      <trkpt lat="44.59231" lon="5.23801">
        <ele>971.09219328</ele>
        <time>2016-07-24T09:17:55.013Z</time>
      </trkpt>
      <trkpt lat="44.59207" lon="5.23821">
        <ele>967.29819904</ele>
        <time>2016-07-24T09:18:07.009Z</time>
      </trkpt>
      <trkpt lat="44.59219" lon="5.23867">
        <ele>967.10100224</ele>
        <time>2016-07-24T09:18:19.005Z</time>
      </trkpt>
      <trkpt lat="44.59204" lon="5.23891">
        <ele>968.70200064</ele>
        <time>2016-07-24T09:18:27.010Z</time>
      </trkpt>
      <trkpt lat="44.59181" lon="5.23918">
        <ele>968.05090048</ele>
        <time>2016-07-24T09:18:39.009Z</time>
      </trkpt>
      <trkpt lat="44.59177" lon="5.23935">
        <ele>970.50540288</ele>
        <time>2016-07-24T09:18:51.009Z</time>
      </trkpt>
      <trkpt lat="44.59167" lon="5.23944">
        <ele>975</ele>
        <time>2016-07-24T09:19:03.010Z</time>
      </trkpt>
      <trkpt lat="44.59155" lon="5.23956">
        <ele>975.50120192</ele>
        <time>2016-07-24T09:19:11.006Z</time>
      </trkpt>
      <trkpt lat="44.59152" lon="5.23975">
        <ele>979.257504</ele>
        <time>2016-07-24T09:19:23.015Z</time>
      </trkpt>
      <trkpt lat="44.59151" lon="5.23991">
        <ele>983.30160128</ele>
        <time>2016-07-24T09:19:35.008Z</time>
      </trkpt>
      <trkpt lat="44.5914" lon="5.24002">
        <ele>985.70280192</ele>
        <time>2016-07-24T09:19:47.014Z</time>
      </trkpt>
      <trkpt lat="44.59132" lon="5.24013">
        <ele>987.30360064</ele>
        <time>2016-07-24T09:19:55.018Z</time>
      </trkpt>
      <trkpt lat="44.59127" lon="5.24029">
        <ele>988.85100032</ele>
        <time>2016-07-24T09:20:07.010Z</time>
      </trkpt>
      <trkpt lat="44.59117" lon="5.24037">
        <ele>990.30060032</ele>
        <time>2016-07-24T09:20:15.003Z</time>
      </trkpt>
      <trkpt lat="44.59108" lon="5.24046">
        <ele>993.71140096</ele>
        <time>2016-07-24T09:20:23.019Z</time>
      </trkpt>
      <trkpt lat="44.59095" lon="5.24059">
        <ele>999.20360192</ele>
        <time>2016-07-24T09:20:39.009Z</time>
      </trkpt>
      <trkpt lat="44.59086" lon="5.24071">
        <ele>1002.4028032</ele>
        <time>2016-07-24T09:20:47.007Z</time>
      </trkpt>
      <trkpt lat="44.59074" lon="5.24084">
        <ele>1005.10180096</ele>
        <time>2016-07-24T09:20:59.009Z</time>
      </trkpt>
      <trkpt lat="44.59065" lon="5.24091">
        <ele>1009.10180096</ele>
        <time>2016-07-24T09:21:19.009Z</time>
      </trkpt>
      <trkpt lat="44.59046" lon="5.24102">
        <ele>1010.70020096</ele>
        <time>2016-07-24T09:21:27.001Z</time>
      </trkpt>
      <trkpt lat="44.59033" lon="5.241">
        <ele>1017.35270144</ele>
        <time>2016-07-24T09:21:43.009Z</time>
      </trkpt>
      <trkpt lat="44.59022" lon="5.24101">
        <ele>1021.10280192</ele>
        <time>2016-07-24T09:21:59.014Z</time>
      </trkpt>
      <trkpt lat="44.59015" lon="5.24113">
        <ele>1023.0618374383</ele>
        <time>2016-07-24T09:22:11.009Z</time>
      </trkpt>
      <trkpt lat="44.59008" lon="5.24126">
        <ele>1025.45010048</ele>
        <time>2016-07-24T09:22:23.001Z</time>
      </trkpt>
      <trkpt lat="44.59" lon="5.24145">
        <ele>1029.9090048</ele>
        <time>2016-07-24T09:22:35.015Z</time>
      </trkpt>
      <trkpt lat="44.5899" lon="5.24142">
        <ele>1032.45080064</ele>
        <time>2016-07-24T09:22:43.008Z</time>
      </trkpt>
      <trkpt lat="44.58969" lon="5.24123">
        <ele>1033.6507008</ele>
        <time>2016-07-24T09:22:55.007Z</time>
      </trkpt>
      <trkpt lat="44.58959" lon="5.24123">
        <ele>1035.80360192</ele>
        <time>2016-07-24T09:23:03.009Z</time>
      </trkpt>
      <trkpt lat="44.58949" lon="5.24111">
        <ele>1039.30280192</ele>
        <time>2016-07-24T09:23:15.014Z</time>
      </trkpt>
      <trkpt lat="44.58938" lon="5.24101">
        <ele>1041.70360064</ele>
        <time>2016-07-24T09:23:27.018Z</time>
      </trkpt>
      <trkpt lat="44.58931" lon="5.24087">
        <ele>1044.20360192</ele>
        <time>2016-07-24T09:23:34.009Z</time>
      </trkpt>
      <trkpt lat="44.5892" lon="5.24083">
        <ele>1046.35090048</ele>
        <time>2016-07-24T09:23:42.009Z</time>
      </trkpt>
      <trkpt lat="44.589" lon="5.24071">
        <ele>1047</ele>
        <time>2016-07-24T09:23:54.004Z</time>
      </trkpt>
      <trkpt lat="44.58886" lon="5.24068">
        <ele>1047.7010991878</ele>
        <time>2016-07-24T09:24:02.009Z</time>
      </trkpt>
      <trkpt lat="44.5887" lon="5.24061">
        <ele>1049.1499497737</ele>
        <time>2016-07-24T09:24:10.008Z</time>
      </trkpt>
      <trkpt lat="44.5885" lon="5.24052">
        <ele>1049.9510511642</ele>
        <time>2016-07-24T09:24:18.011Z</time>
      </trkpt>
      <trkpt lat="44.58828" lon="5.24053">
        <ele>1053.00080128</ele>
        <time>2016-07-24T09:24:26.002Z</time>
      </trkpt>
      <trkpt lat="44.58814" lon="5.24048">
        <ele>1054</ele>
        <time>2016-07-24T09:24:38.010Z</time>
      </trkpt>
      <trkpt lat="44.58801" lon="5.24049">
        <ele>1054.76150016</ele>
        <time>2016-07-24T09:24:46.115Z</time>
      </trkpt>
      <trkpt lat="44.5879" lon="5.2405">
        <ele>1056.90240256</ele>
        <time>2016-07-24T09:24:58.012Z</time>
      </trkpt>
      <trkpt lat="44.58778" lon="5.24042">
        <ele>1058.30100224</ele>
        <time>2016-07-24T09:25:10.005Z</time>
      </trkpt>
      <trkpt lat="44.58767" lon="5.24018">
        <ele>1061.50120192</ele>
        <time>2016-07-24T09:25:26.006Z</time>
      </trkpt>
      <trkpt lat="44.5876" lon="5.24003">
        <ele>1064.00360192</ele>
        <time>2016-07-24T09:25:41.009Z</time>
      </trkpt>
      <trkpt lat="44.58746" lon="5.23992">
        <ele>1067.45080064</ele>
        <time>2016-07-24T09:25:53.008Z</time>
      </trkpt>
      <trkpt lat="44.5873" lon="5.23982">
        <ele>1068.05060096</ele>
        <time>2016-07-24T09:26:09.006Z</time>
      </trkpt>
      <trkpt lat="44.58725" lon="5.23965">
        <ele>1068.85090048</ele>
        <time>2016-07-24T09:26:17.009Z</time>
      </trkpt>
      <trkpt lat="44.58732" lon="5.2395">
        <ele>1070.50340096</ele>
        <time>2016-07-24T09:26:26.017Z</time>
      </trkpt>
      <trkpt lat="44.58745" lon="5.23954">
        <ele>1075.757504</ele>
        <time>2016-07-24T09:26:38.015Z</time>
      </trkpt>
      <trkpt lat="44.58756" lon="5.23954">
        <ele>1077.5014016</ele>
        <time>2016-07-24T09:26:46.007Z</time>
      </trkpt>
      <trkpt lat="44.58772" lon="5.23951">
        <ele>1079.6512</ele>
        <time>2016-07-24T09:26:54.004Z</time>
      </trkpt>
      <trkpt lat="44.58765" lon="5.23943">
        <ele>1081.70040064</ele>
        <time>2016-07-24T09:27:02.002Z</time>
      </trkpt>
      <trkpt lat="44.58763" lon="5.23919">
        <ele>1083.15050112</ele>
        <time>2016-07-24T09:27:10.005Z</time>
      </trkpt>
      <trkpt lat="44.58763" lon="5.23885">
        <ele>1085.753504</ele>
        <time>2016-07-24T09:27:22.007Z</time>
      </trkpt>
      <trkpt lat="44.58763" lon="5.2387">
        <ele>1089.5502498619</ele>
        <time>2016-07-24T09:27:34.008Z</time>
      </trkpt>
      <trkpt lat="44.58764" lon="5.23841">
        <ele>1090.7504510114</ele>
        <time>2016-07-24T09:27:46.007Z</time>
      </trkpt>
      <trkpt lat="44.58762" lon="5.23824">
        <ele>1095.3507008</ele>
        <time>2016-07-24T09:28:02.007Z</time>
      </trkpt>
      <trkpt lat="44.58757" lon="5.23805">
        <ele>1099.31020288</ele>
        <time>2016-07-24T09:28:14.017Z</time>
      </trkpt>
      <trkpt lat="44.58765" lon="5.23793">
        <ele>1105.00440064</ele>
        <time>2016-07-24T09:28:26.011Z</time>
      </trkpt>
      <trkpt lat="44.58768" lon="5.2378">
        <ele>1108.85030144</ele>
        <time>2016-07-24T09:28:38.001Z</time>
      </trkpt>
      <trkpt lat="44.58764" lon="5.23767">
        <ele>1110.50280192</ele>
        <time>2016-07-24T09:28:46.014Z</time>
      </trkpt>
      <trkpt lat="44.5876" lon="5.23748">
        <ele>1117.40360192</ele>
        <time>2016-07-24T09:29:07.009Z</time>
      </trkpt>
      <trkpt lat="44.58761" lon="5.23728">
        <ele>1119.70180096</ele>
        <time>2016-07-24T09:29:22.009Z</time>
      </trkpt>
      <trkpt lat="44.58763" lon="5.23713">
        <ele>1125.2545024</ele>
        <time>2016-07-24T09:29:37.009Z</time>
      </trkpt>
      <trkpt lat="44.58771" lon="5.23697">
        <ele>1129.45050112</ele>
        <time>2016-07-24T09:29:53.005Z</time>
      </trkpt>
      <trkpt lat="44.58781" lon="5.2369">
        <ele>1132.60360192</ele>
        <time>2016-07-24T09:30:05.009Z</time>
      </trkpt>
      <trkpt lat="44.58794" lon="5.23674">
        <ele>1137.45090048</ele>
        <time>2016-07-24T09:30:23.009Z</time>
      </trkpt>
      <trkpt lat="44.58803" lon="5.23664">
        <ele>1139.7545024</ele>
        <time>2016-07-24T09:30:32.009Z</time>
      </trkpt>
      <trkpt lat="44.58815" lon="5.23655">
        <ele>1145.20360192</ele>
        <time>2016-07-24T09:30:44.009Z</time>
      </trkpt>
      <trkpt lat="44.58824" lon="5.23648">
        <ele>1148.3545024</ele>
        <time>2016-07-24T09:30:53.015Z</time>
      </trkpt>
      <trkpt lat="44.58835" lon="5.23642">
        <ele>1150.2545024</ele>
        <time>2016-07-24T09:31:09.009Z</time>
      </trkpt>
      <trkpt lat="44.58848" lon="5.23638">
        <ele>1155.25090048</ele>
        <time>2016-07-24T09:31:21.009Z</time>
      </trkpt>
      <trkpt lat="44.5886" lon="5.23632">
        <ele>1159.00360192</ele>
        <time>2016-07-24T09:31:36.009Z</time>
      </trkpt>
      <trkpt lat="44.58873" lon="5.23626">
        <ele>1162.85330048</ele>
        <time>2016-07-24T09:31:48.011Z</time>
      </trkpt>
      <trkpt lat="44.58887" lon="5.23617">
        <ele>1165.15090048</ele>
        <time>2016-07-24T09:32:00.009Z</time>
      </trkpt>
      <trkpt lat="44.58901" lon="5.23611">
        <ele>1166.7010991878</ele>
        <time>2016-07-24T09:32:12.009Z</time>
      </trkpt>
      <trkpt lat="44.58896" lon="5.23596">
        <ele>1170.2462432797</ele>
        <time>2016-07-24T09:32:29.002Z</time>
      </trkpt>
      <trkpt lat="44.58885" lon="5.23581">
        <ele>1177.20360192</ele>
        <time>2016-07-24T09:32:44.009Z</time>
      </trkpt>
      <trkpt lat="44.58877" lon="5.23569">
        <ele>1180.5014016</ele>
        <time>2016-07-24T09:32:56.007Z</time>
      </trkpt>
      <trkpt lat="44.58864" lon="5.23572">
        <ele>1181.96100096</ele>
        <time>2016-07-24T09:33:08.110Z</time>
      </trkpt>
      <trkpt lat="44.5885" lon="5.2357">
        <ele>1183.50220032</ele>
        <time>2016-07-24T09:33:16.011Z</time>
      </trkpt>
      <trkpt lat="44.58839" lon="5.2356">
        <ele>1185.10220032</ele>
        <time>2016-07-24T09:33:24.011Z</time>
      </trkpt>
      <trkpt lat="44.58826" lon="5.23562">
        <ele>1186.35080064</ele>
        <time>2016-07-24T09:33:32.008Z</time>
      </trkpt>
      <trkpt lat="44.58814" lon="5.23553">
        <ele>1187.55090048</ele>
        <time>2016-07-24T09:33:44.009Z</time>
      </trkpt>
      <trkpt lat="44.588" lon="5.23546">
        <ele>1189.40320256</ele>
        <time>2016-07-24T09:33:52.008Z</time>
      </trkpt>
      <trkpt lat="44.58789" lon="5.23549">
        <ele>1192.45150336</ele>
        <time>2016-07-24T09:34:00.005Z</time>
      </trkpt>
      <trkpt lat="44.5878" lon="5.23537">
        <ele>1196.05060096</ele>
        <time>2016-07-24T09:34:12.002Z</time>
      </trkpt>
      <trkpt lat="44.5877" lon="5.23532">
        <ele>1198.9780901107</ele>
        <time>2016-07-24T09:34:23.009Z</time>
      </trkpt>
      <trkpt lat="44.58756" lon="5.2352">
        <ele>1203.7545024</ele>
        <time>2016-07-24T09:34:38.009Z</time>
      </trkpt>
      <trkpt lat="44.58746" lon="5.23511">
        <ele>1206.10160128</ele>
        <time>2016-07-24T09:34:49.008Z</time>
      </trkpt>
      <trkpt lat="44.58741" lon="5.23498">
        <ele>1214.60360192</ele>
        <time>2016-07-24T09:35:10.009Z</time>
      </trkpt>
      <trkpt lat="44.58734" lon="5.23487">
        <ele>1218.70240256</ele>
        <time>2016-07-24T09:35:22.012Z</time>
      </trkpt>
      <trkpt lat="44.58738" lon="5.23468">
        <ele>1224.70180096</ele>
        <time>2016-07-24T09:35:47.009Z</time>
      </trkpt>
      <trkpt lat="44.58725" lon="5.23469">
        <ele>1231.45270144</ele>
        <time>2016-07-24T09:36:10.009Z</time>
      </trkpt>
      <trkpt lat="44.58716" lon="5.23458">
        <ele>1236.85270144</ele>
        <time>2016-07-24T09:36:28.009Z</time>
      </trkpt>
      <trkpt lat="44.58708" lon="5.23446">
        <ele>1240.50180096</ele>
        <time>2016-07-24T09:36:41.009Z</time>
      </trkpt>
      <trkpt lat="44.58709" lon="5.23426">
        <ele>1243.50100224</ele>
        <time>2016-07-24T09:36:56.005Z</time>
      </trkpt>
      <trkpt lat="44.58718" lon="5.23409">
        <ele>1257.95090048</ele>
        <time>2016-07-24T09:37:38.009Z</time>
      </trkpt>
      <trkpt lat="44.58724" lon="5.23396">
        <ele>1260.30180096</ele>
        <time>2016-07-24T09:37:50.009Z</time>
      </trkpt>
      <trkpt lat="44.5873" lon="5.23376">
        <ele>1263.40360192</ele>
        <time>2016-07-24T09:38:02.009Z</time>
      </trkpt>
      <trkpt lat="44.58736" lon="5.23357">
        <ele>1266</ele>
        <time>2016-07-24T09:38:14.003Z</time>
      </trkpt>
      <trkpt lat="44.5873" lon="5.23338">
        <ele>1267.50180096</ele>
        <time>2016-07-24T09:38:26.009Z</time>
      </trkpt>
      <trkpt lat="44.58723" lon="5.23319">
        <ele>1268.5515008</ele>
        <time>2016-07-24T09:38:34.015Z</time>
      </trkpt>
      <trkpt lat="44.58736" lon="5.23305">
        <ele>1269.75090048</ele>
        <time>2016-07-24T09:38:46.009Z</time>
      </trkpt>
      <trkpt lat="44.5873" lon="5.23288">
        <ele>1271.50180096</ele>
        <time>2016-07-24T09:38:56.009Z</time>
      </trkpt>
      <trkpt lat="44.58727" lon="5.23272">
        <ele>1276.7585024</ele>
        <time>2016-07-24T09:39:08.017Z</time>
      </trkpt>
      <trkpt lat="44.58725" lon="5.23256">
        <ele>1277</ele>
        <time>2016-07-24T09:39:16.014Z</time>
      </trkpt>
      <trkpt lat="44.58723" lon="5.23239">
        <ele>1280.00360192</ele>
        <time>2016-07-24T09:39:26.009Z</time>
      </trkpt>
      <trkpt lat="44.58724" lon="5.23222">
        <ele>1281.55090048</ele>
        <time>2016-07-24T09:39:34.009Z</time>
      </trkpt>
      <trkpt lat="44.5873" lon="5.23211">
        <ele>1282.50180096</ele>
        <time>2016-07-24T09:39:41.009Z</time>
      </trkpt>
      <trkpt lat="44.58727" lon="5.23191">
        <ele>1290.1297393548</ele>
        <time>2016-07-24T09:39:59.009Z</time>
      </trkpt>
      <trkpt lat="44.58718" lon="5.23186">
        <ele>1293.75270144</ele>
        <time>2016-07-24T09:40:11.009Z</time>
      </trkpt>
      <trkpt lat="44.58705" lon="5.23191">
        <ele>1299.60360192</ele>
        <time>2016-07-24T09:40:30.009Z</time>
      </trkpt>
      <trkpt lat="44.58692" lon="5.23183">
        <ele>1304.10100224</ele>
        <time>2016-07-24T09:40:44.005Z</time>
      </trkpt>
      <trkpt lat="44.58679" lon="5.23179">
        <ele>1311.45090048</ele>
        <time>2016-07-24T09:41:13.009Z</time>
      </trkpt>
      <trkpt lat="44.58666" lon="5.23173">
        <ele>1314.2545024</ele>
        <time>2016-07-24T09:41:23.009Z</time>
      </trkpt>
      <trkpt lat="44.58656" lon="5.23169">
        <ele>1317.781617632</ele>
        <time>2016-07-24T09:41:31.108Z</time>
      </trkpt>
      <trkpt lat="44.58644" lon="5.23173">
        <ele>1323.90180096</ele>
        <time>2016-07-24T09:41:53.009Z</time>
      </trkpt>
      <trkpt lat="44.58634" lon="5.2317">
        <ele>1327.85270144</ele>
        <time>2016-07-24T09:42:08.009Z</time>
      </trkpt>
      <trkpt lat="44.58621" lon="5.2317">
        <ele>1329.90200064</ele>
        <time>2016-07-24T09:42:18.010Z</time>
      </trkpt>
      <trkpt lat="44.58608" lon="5.23171">
        <ele>1331.10180096</ele>
        <time>2016-07-24T09:42:29.009Z</time>
      </trkpt>
      <trkpt lat="44.58592" lon="5.23161">
        <ele>1334.80360192</ele>
        <time>2016-07-24T09:42:43.009Z</time>
      </trkpt>
      <trkpt lat="44.58582" lon="5.23157">
        <ele>1340.05020032</ele>
        <time>2016-07-24T09:42:59.002Z</time>
      </trkpt>
      <trkpt lat="44.58569" lon="5.23155">
        <ele>1341.55090048</ele>
        <time>2016-07-24T09:43:14.009Z</time>
      </trkpt>
      <trkpt lat="44.58553" lon="5.23149">
        <ele>1343.50180096</ele>
        <time>2016-07-24T09:43:26.009Z</time>
      </trkpt>
      <trkpt lat="44.58544" lon="5.2314">
        <ele>1345.65270144</ele>
        <time>2016-07-24T09:43:34.009Z</time>
      </trkpt>
      <trkpt lat="44.58538" lon="5.23124">
        <ele>1350.00360192</ele>
        <time>2016-07-24T09:43:46.009Z</time>
      </trkpt>
      <trkpt lat="44.58533" lon="5.2311">
        <ele>1353.85270144</ele>
        <time>2016-07-24T09:43:58.009Z</time>
      </trkpt>
      <trkpt lat="44.58529" lon="5.2309">
        <ele>1358.95270144</ele>
        <time>2016-07-24T09:44:15.009Z</time>
      </trkpt>
      <trkpt lat="44.58521" lon="5.2308">
        <ele>1361.30180096</ele>
        <time>2016-07-24T09:44:25.009Z</time>
      </trkpt>
      <trkpt lat="44.58515" lon="5.23067">
        <ele>1364.20440064</ele>
        <time>2016-07-24T09:44:34.011Z</time>
      </trkpt>
      <trkpt lat="44.58507" lon="5.23055">
        <ele>1370.65270144</ele>
        <time>2016-07-24T09:44:54.009Z</time>
      </trkpt>
      <trkpt lat="44.58492" lon="5.23044">
        <ele>1375</ele>
        <time>2016-07-24T09:45:17.009Z</time>
      </trkpt>
      <trkpt lat="44.58478" lon="5.23034">
        <ele>1376.2969860808</ele>
        <time>2016-07-24T09:45:29.110Z</time>
      </trkpt>
      <trkpt lat="44.58466" lon="5.23022">
        <ele>1383.5648524776</ele>
        <time>2016-07-24T09:45:45.009Z</time>
      </trkpt>
      <trkpt lat="44.58455" lon="5.23018">
        <ele>1389.30120192</ele>
        <time>2016-07-24T09:46:00.006Z</time>
      </trkpt>
      <trkpt lat="44.58446" lon="5.23011">
        <ele>1390.92300032</ele>
        <time>2016-07-24T09:46:08.115Z</time>
      </trkpt>
      <trkpt lat="44.58433" lon="5.23">
        <ele>1392.70180096</ele>
        <time>2016-07-24T09:46:27.009Z</time>
      </trkpt>
      <trkpt lat="44.58423" lon="5.22997">
        <ele>1399.90080256</ele>
        <time>2016-07-24T09:46:43.004Z</time>
      </trkpt>
      <trkpt lat="44.58406" lon="5.22988">
        <ele>1401.65090048</ele>
        <time>2016-07-24T09:46:55.009Z</time>
      </trkpt>
      <trkpt lat="44.58388" lon="5.22989">
        <ele>1403.5014016</ele>
        <time>2016-07-24T09:47:11.007Z</time>
      </trkpt>
      <trkpt lat="44.58377" lon="5.22987">
        <ele>1405.10040064</ele>
        <time>2016-07-24T09:47:19.002Z</time>
      </trkpt>
      <trkpt lat="44.58366" lon="5.2299">
        <ele>1406.70100224</ele>
        <time>2016-07-24T09:47:27.005Z</time>
      </trkpt>
      <trkpt lat="44.58356" lon="5.2299">
        <ele>1407.65040128</ele>
        <time>2016-07-24T09:47:35.004Z</time>
      </trkpt>
      <trkpt lat="44.58332" lon="5.22984">
        <ele>1412.60320256</ele>
        <time>2016-07-24T09:47:55.008Z</time>
      </trkpt>
      <trkpt lat="44.58323" lon="5.22974">
        <ele>1416.5521024</ele>
        <time>2016-07-24T09:48:07.007Z</time>
      </trkpt>
      <trkpt lat="44.58305" lon="5.22974">
        <ele>1417.65090048</ele>
        <time>2016-07-24T09:48:15.009Z</time>
      </trkpt>
      <trkpt lat="44.58281" lon="5.22978">
        <ele>1418.9016996747</ele>
        <time>2016-07-24T09:48:23.013Z</time>
      </trkpt>
      <trkpt lat="44.58271" lon="5.22983">
        <ele>1420.5002998201</ele>
        <time>2016-07-24T09:48:31.009Z</time>
      </trkpt>
      <trkpt lat="44.5825" lon="5.23005">
        <ele>1422</ele>
        <time>2016-07-24T09:48:43.012Z</time>
      </trkpt>
      <trkpt lat="44.58225" lon="5.23024">
        <ele>1421.49679872</ele>
        <time>2016-07-24T09:48:51.016Z</time>
      </trkpt>
      <trkpt lat="44.58212" lon="5.2304">
        <ele>1419.8798569519</ele>
        <time>2016-07-24T09:48:59.013Z</time>
      </trkpt>
      <trkpt lat="44.58189" lon="5.23045">
        <ele>1419</ele>
        <time>2016-07-24T09:49:07.009Z</time>
      </trkpt>
      <trkpt lat="44.58169" lon="5.23048">
        <ele>1420.30160128</ele>
        <time>2016-07-24T09:49:15.008Z</time>
      </trkpt>
      <trkpt lat="44.58154" lon="5.23041">
        <ele>1421.4507008</ele>
        <time>2016-07-24T09:49:23.007Z</time>
      </trkpt>
      <trkpt lat="44.58131" lon="5.23047">
        <ele>1422</ele>
        <time>2016-07-24T09:49:31.003Z</time>
      </trkpt>
      <trkpt lat="44.58121" lon="5.23059">
        <ele>1422.10320128</ele>
        <time>2016-07-24T09:49:39.016Z</time>
      </trkpt>
      <trkpt lat="44.58097" lon="5.23085">
        <ele>1425.00160512</ele>
        <time>2016-07-24T09:49:51.004Z</time>
      </trkpt>
      <trkpt lat="44.58075" lon="5.231">
        <ele>1429.80000256</ele>
        <time>2016-07-24T09:50:03.000Z</time>
      </trkpt>
      <trkpt lat="44.58055" lon="5.23107">
        <ele>1432</ele>
        <time>2016-07-24T09:50:11.004Z</time>
      </trkpt>
      <trkpt lat="44.58042" lon="5.23107">
        <ele>1432.3090048</ele>
        <time>2016-07-24T09:50:19.015Z</time>
      </trkpt>
      <trkpt lat="44.58013" lon="5.23117">
        <ele>1438.75300096</ele>
        <time>2016-07-24T09:50:31.010Z</time>
      </trkpt>
      <trkpt lat="44.57998" lon="5.23118">
        <ele>1441</ele>
        <time>2016-07-24T09:50:39.008Z</time>
      </trkpt>
      <trkpt lat="44.57986" lon="5.23117">
        <ele>1446.95630336</ele>
        <time>2016-07-24T09:50:57.009Z</time>
      </trkpt>
      <trkpt lat="44.57958" lon="5.23129">
        <ele>1454</ele>
        <time>2016-07-24T09:51:13.011Z</time>
      </trkpt>
      <trkpt lat="44.57946" lon="5.23127">
        <ele>1454.7521024</ele>
        <time>2016-07-24T09:51:21.007Z</time>
      </trkpt>
      <trkpt lat="44.57926" lon="5.23136">
        <ele>1457.05090048</ele>
        <time>2016-07-24T09:51:29.009Z</time>
      </trkpt>
      <trkpt lat="44.57901" lon="5.23151">
        <ele>1459.7549056</ele>
        <time>2016-07-24T09:51:41.007Z</time>
      </trkpt>
      <trkpt lat="44.57891" lon="5.23147">
        <ele>1465</ele>
        <time>2016-07-24T09:51:49.004Z</time>
      </trkpt>
      <trkpt lat="44.57874" lon="5.23145">
        <ele>1465</ele>
        <time>2016-07-24T09:51:57.016Z</time>
      </trkpt>
      <trkpt lat="44.57857" lon="5.23153">
        <ele>1466.95270144</ele>
        <time>2016-07-24T09:52:05.009Z</time>
      </trkpt>
      <trkpt lat="44.57838" lon="5.23157">
        <ele>1468.45080064</ele>
        <time>2016-07-24T09:52:13.008Z</time>
      </trkpt>
      <trkpt lat="44.57816" lon="5.23166">
        <ele>1469</ele>
        <time>2016-07-24T09:52:21.004Z</time>
      </trkpt>
      <trkpt lat="44.57798" lon="5.2318">
        <ele>1469.05050112</ele>
        <time>2016-07-24T09:52:29.005Z</time>
      </trkpt>
      <trkpt lat="44.57771" lon="5.23203">
        <ele>1470</ele>
        <time>2016-07-24T09:52:41.011Z</time>
      </trkpt>
      <trkpt lat="44.57903" lon="5.23152">
        <ele>1470.9997520021</ele>
        <time>2016-07-24T09:57:50.004Z</time>
      </trkpt>
      <trkpt lat="44.57912" lon="5.23145">
        <ele>1471.5228475006</ele>
        <time>2016-07-24T09:57:55.010Z</time>
      </trkpt>
      <trkpt lat="44.57938" lon="5.23129">
        <ele>1466.74300672</ele>
        <time>2016-07-24T09:58:07.010Z</time>
      </trkpt>
      <trkpt lat="44.57958" lon="5.23117">
        <ele>1463.34670336</ele>
        <time>2016-07-24T09:58:15.011Z</time>
      </trkpt>
      <trkpt lat="44.57975" lon="5.23113">
        <ele>1457.79641344</ele>
        <time>2016-07-24T09:58:23.003Z</time>
      </trkpt>
      <trkpt lat="44.58007" lon="5.23095">
        <ele>1448.3497024</ele>
        <time>2016-07-24T09:58:35.001Z</time>
      </trkpt>
      <trkpt lat="44.58036" lon="5.23092">
        <ele>1444.75000192</ele>
        <time>2016-07-24T09:58:47.000Z</time>
      </trkpt>
      <trkpt lat="44.58058" lon="5.23092">
        <ele>1441.79920384</ele>
        <time>2016-07-24T09:58:55.002Z</time>
      </trkpt>
      <trkpt lat="44.58079" lon="5.23092">
        <ele>1437.89580288</ele>
        <time>2016-07-24T09:59:03.007Z</time>
      </trkpt>
      <trkpt lat="44.58101" lon="5.23077">
        <ele>1434</ele>
        <time>2016-07-24T09:59:11.011Z</time>
      </trkpt>
      <trkpt lat="44.58121" lon="5.23055">
        <ele>1434</ele>
        <time>2016-07-24T09:59:19.013Z</time>
      </trkpt>
      <trkpt lat="44.58154" lon="5.23039">
        <ele>1430.2440064</ele>
        <time>2016-07-24T09:59:27.012Z</time>
      </trkpt>
      <trkpt lat="44.58166" lon="5.23033">
        <ele>1429.5504</ele>
        <time>2016-07-24T09:59:35.004Z</time>
      </trkpt>
      <trkpt lat="44.58185" lon="5.23031">
        <ele>1429.64930048</ele>
        <time>2016-07-24T09:59:43.007Z</time>
      </trkpt>
      <trkpt lat="44.58203" lon="5.23032">
        <ele>1428.69740032</ele>
        <time>2016-07-24T09:59:51.013Z</time>
      </trkpt>
      <trkpt lat="44.58226" lon="5.23027">
        <ele>1427.09960192</ele>
        <time>2016-07-24T09:59:59.002Z</time>
      </trkpt>
      <trkpt lat="44.58241" lon="5.23011">
        <ele>1427</ele>
        <time>2016-07-24T10:00:07.002Z</time>
      </trkpt>
      <trkpt lat="44.58252" lon="5.2301">
        <ele>1428.10139904</ele>
        <time>2016-07-24T10:00:15.007Z</time>
      </trkpt>
      <trkpt lat="44.58245" lon="5.2301">
        <ele>1431.9992311431</ele>
        <time>2016-07-24T10:05:55.005Z</time>
      </trkpt>
      <trkpt lat="44.58263" lon="5.22999">
        <ele>1432</ele>
        <time>2016-07-24T10:06:07.010Z</time>
      </trkpt>
      <trkpt lat="44.58273" lon="5.22982">
        <ele>1432</ele>
        <time>2016-07-24T10:06:15.009Z</time>
      </trkpt>
      <trkpt lat="44.5829" lon="5.22963">
        <ele>1432</ele>
        <time>2016-07-24T10:06:23.009Z</time>
      </trkpt>
      <trkpt lat="44.58306" lon="5.22949">
        <ele>1432</ele>
        <time>2016-07-24T10:06:31.009Z</time>
      </trkpt>
      <trkpt lat="44.58319" lon="5.22936">
        <ele>1432.90180096</ele>
        <time>2016-07-24T10:06:39.009Z</time>
      </trkpt>
      <trkpt lat="44.58332" lon="5.22926">
        <ele>1435.00360192</ele>
        <time>2016-07-24T10:06:47.009Z</time>
      </trkpt>
      <trkpt lat="44.58345" lon="5.22917">
        <ele>1438.10180096</ele>
        <time>2016-07-24T10:06:55.009Z</time>
      </trkpt>
      <trkpt lat="44.58364" lon="5.22908">
        <ele>1439.70180096</ele>
        <time>2016-07-24T10:07:03.009Z</time>
      </trkpt>
      <trkpt lat="44.58381" lon="5.229">
        <ele>1440.65090048</ele>
        <time>2016-07-24T10:07:11.009Z</time>
      </trkpt>
      <trkpt lat="44.58404" lon="5.22888">
        <ele>1441</ele>
        <time>2016-07-24T10:07:23.012Z</time>
      </trkpt>
      <trkpt lat="44.58419" lon="5.22883">
        <ele>1441</ele>
        <time>2016-07-24T10:07:31.010Z</time>
      </trkpt>
      <trkpt lat="44.58436" lon="5.22871">
        <ele>1441</ele>
        <time>2016-07-24T10:07:39.015Z</time>
      </trkpt>
      <trkpt lat="44.58464" lon="5.22853">
        <ele>1441.65110016</ele>
        <time>2016-07-24T10:07:51.011Z</time>
      </trkpt>
      <trkpt lat="44.58483" lon="5.2284">
        <ele>1441.5492992</ele>
        <time>2016-07-24T10:07:59.007Z</time>
      </trkpt>
      <trkpt lat="44.58511" lon="5.22834">
        <ele>1441.65050112</ele>
        <time>2016-07-24T10:08:11.005Z</time>
      </trkpt>
      <trkpt lat="44.58525" lon="5.22825">
        <ele>1442.45030016</ele>
        <time>2016-07-24T10:08:19.003Z</time>
      </trkpt>
      <trkpt lat="44.58547" lon="5.22812">
        <ele>1442.34909952</ele>
        <time>2016-07-24T10:08:31.009Z</time>
      </trkpt>
      <trkpt lat="44.58562" lon="5.22805">
        <ele>1442.45090048</ele>
        <time>2016-07-24T10:08:39.009Z</time>
      </trkpt>
      <trkpt lat="44.58574" lon="5.22798">
        <ele>1443</ele>
        <time>2016-07-24T10:08:47.009Z</time>
      </trkpt>
      <trkpt lat="44.58592" lon="5.22788">
        <ele>1443.10160128</ele>
        <time>2016-07-24T10:08:55.008Z</time>
      </trkpt>
      <trkpt lat="44.58605" lon="5.22778">
        <ele>1444.70120192</ele>
        <time>2016-07-24T10:09:03.006Z</time>
      </trkpt>
      <trkpt lat="44.58619" lon="5.22769">
        <ele>1447.15300096</ele>
        <time>2016-07-24T10:09:15.010Z</time>
      </trkpt>
      <trkpt lat="44.58628" lon="5.22761">
        <ele>1449.55270144</ele>
        <time>2016-07-24T10:09:23.009Z</time>
      </trkpt>
      <trkpt lat="44.5864" lon="5.22746">
        <ele>1454.10200064</ele>
        <time>2016-07-24T10:09:35.010Z</time>
      </trkpt>
      <trkpt lat="44.58649" lon="5.22737">
        <ele>1457.30160128</ele>
        <time>2016-07-24T10:09:51.008Z</time>
      </trkpt>
      <trkpt lat="44.58658" lon="5.22721">
        <ele>1463.10120192</ele>
        <time>2016-07-24T10:10:15.006Z</time>
      </trkpt>
      <trkpt lat="44.58668" lon="5.22719">
        <ele>1471.50020096</ele>
        <time>2016-07-24T10:10:47.001Z</time>
      </trkpt>
      <trkpt lat="44.58686" lon="5.22717">
        <ele>1473.05060096</ele>
        <time>2016-07-24T10:10:55.006Z</time>
      </trkpt>
      <trkpt lat="44.58698" lon="5.22719">
        <ele>1473.73430016</ele>
        <time>2016-07-24T10:11:01.843Z</time>
      </trkpt>
      <trkpt lat="44.5871" lon="5.22718">
        <ele>1476.70180096</ele>
        <time>2016-07-24T10:11:18.009Z</time>
      </trkpt>
      <trkpt lat="44.58718" lon="5.22722">
        <ele>1478</ele>
        <time>2016-07-24T10:11:26.009Z</time>
      </trkpt>
      <trkpt lat="44.58728" lon="5.22726">
        <ele>1478</ele>
        <time>2016-07-24T10:11:34.009Z</time>
      </trkpt>
      <trkpt lat="44.5874" lon="5.22732">
        <ele>1480.30180096</ele>
        <time>2016-07-24T10:11:46.009Z</time>
      </trkpt>
      <trkpt lat="44.58748" lon="5.22733">
        <ele>1482.75090048</ele>
        <time>2016-07-24T10:12:02.009Z</time>
      </trkpt>
      <trkpt lat="44.58758" lon="5.22737">
        <ele>1484.90180096</ele>
        <time>2016-07-24T10:12:14.009Z</time>
      </trkpt>
      <trkpt lat="44.58769" lon="5.22739">
        <ele>1485.75090048</ele>
        <time>2016-07-24T10:12:22.009Z</time>
      </trkpt>
      <trkpt lat="44.58779" lon="5.2274">
        <ele>1486</ele>
        <time>2016-07-24T10:12:30.009Z</time>
      </trkpt>
      <trkpt lat="44.58793" lon="5.2274">
        <ele>1486</ele>
        <time>2016-07-24T10:12:38.009Z</time>
      </trkpt>
      <trkpt lat="44.58807" lon="5.2274">
        <ele>1485.84909952</ele>
        <time>2016-07-24T10:12:46.009Z</time>
      </trkpt>
      <trkpt lat="44.58824" lon="5.22738">
        <ele>1485.04909952</ele>
        <time>2016-07-24T10:12:54.009Z</time>
      </trkpt>
      <trkpt lat="44.58846" lon="5.22741">
        <ele>1481.99639808</ele>
        <time>2016-07-24T10:13:02.009Z</time>
      </trkpt>
      <trkpt lat="44.58868" lon="5.22738">
        <ele>1481.55090048</ele>
        <time>2016-07-24T10:13:10.009Z</time>
      </trkpt>
      <trkpt lat="44.58892" lon="5.22742">
        <ele>1481.29819904</ele>
        <time>2016-07-24T10:13:18.009Z</time>
      </trkpt>
      <trkpt lat="44.58915" lon="5.22743">
        <ele>1479.39639808</ele>
        <time>2016-07-24T10:13:26.009Z</time>
      </trkpt>
      <trkpt lat="44.58936" lon="5.22741">
        <ele>1476.19639808</ele>
        <time>2016-07-24T10:13:34.009Z</time>
      </trkpt>
      <trkpt lat="44.58955" lon="5.22743">
        <ele>1472.2454976</ele>
        <time>2016-07-24T10:13:42.009Z</time>
      </trkpt>
      <trkpt lat="44.58981" lon="5.22755">
        <ele>1471.95090048</ele>
        <time>2016-07-24T10:13:54.009Z</time>
      </trkpt>
      <trkpt lat="44.58999" lon="5.2276">
        <ele>1472.75090048</ele>
        <time>2016-07-24T10:14:02.009Z</time>
      </trkpt>
      <trkpt lat="44.59015" lon="5.22759">
        <ele>1473.55090048</ele>
        <time>2016-07-24T10:14:10.009Z</time>
      </trkpt>
      <trkpt lat="44.59038" lon="5.22753">
        <ele>1474</ele>
        <time>2016-07-24T10:14:22.009Z</time>
      </trkpt>
      <trkpt lat="44.59054" lon="5.22757">
        <ele>1474.55090048</ele>
        <time>2016-07-24T10:14:30.009Z</time>
      </trkpt>
      <trkpt lat="44.59072" lon="5.22757">
        <ele>1475</ele>
        <time>2016-07-24T10:14:38.009Z</time>
      </trkpt>
      <trkpt lat="44.5909" lon="5.22754">
        <ele>1475.15090048</ele>
        <time>2016-07-24T10:14:46.009Z</time>
      </trkpt>
      <trkpt lat="44.59108" lon="5.22753">
        <ele>1475.95090048</ele>
        <time>2016-07-24T10:14:54.009Z</time>
      </trkpt>
      <trkpt lat="44.59127" lon="5.2275">
        <ele>1475.250598802</ele>
        <time>2016-07-24T10:15:02.009Z</time>
      </trkpt>
      <trkpt lat="44.59156" lon="5.22746">
        <ele>1475.05090048</ele>
        <time>2016-07-24T10:15:15.009Z</time>
      </trkpt>
      <trkpt lat="44.59174" lon="5.22743">
        <ele>1475.8288</ele>
        <time>2016-07-24T10:15:22.788Z</time>
      </trkpt>
      <trkpt lat="44.59185" lon="5.22745">
        <ele>1477.3024</ele>
        <time>2016-07-24T10:15:31.012Z</time>
      </trkpt>
      <trkpt lat="44.592" lon="5.22748">
        <ele>1478.8995002762</ele>
        <time>2016-07-24T10:15:39.002Z</time>
      </trkpt>
      <trkpt lat="44.59222" lon="5.22752">
        <ele>1480.2505509515</ele>
        <time>2016-07-24T10:15:47.013Z</time>
      </trkpt>
      <trkpt lat="44.59252" lon="5.22753">
        <ele>1479.64759808</ele>
        <time>2016-07-24T10:15:59.008Z</time>
      </trkpt>
      <trkpt lat="44.59265" lon="5.22759">
        <ele>1477.74949888</ele>
        <time>2016-07-24T10:16:07.005Z</time>
      </trkpt>
      <trkpt lat="44.59291" lon="5.22756">
        <ele>1476.4949888</ele>
        <time>2016-07-24T10:16:15.005Z</time>
      </trkpt>
      <trkpt lat="44.59312" lon="5.22754">
        <ele>1468.4969984</ele>
        <time>2016-07-24T10:16:23.003Z</time>
      </trkpt>
      <trkpt lat="44.59337" lon="5.22758">
        <ele>1461.79519232</ele>
        <time>2016-07-24T10:16:31.006Z</time>
      </trkpt>
      <trkpt lat="44.59351" lon="5.22756">
        <ele>1455.39599104</ele>
        <time>2016-07-24T10:16:39.005Z</time>
      </trkpt>
      <trkpt lat="44.59368" lon="5.22757">
        <ele>1449.49639424</ele>
        <time>2016-07-24T10:16:47.006Z</time>
      </trkpt>
      <trkpt lat="44.59401" lon="5.22752">
        <ele>1443.1939968</ele>
        <time>2016-07-24T10:16:59.015Z</time>
      </trkpt>
      <trkpt lat="44.59429" lon="5.22763">
        <ele>1441</ele>
        <time>2016-07-24T10:17:11.006Z</time>
      </trkpt>
      <trkpt lat="44.59444" lon="5.22765">
        <ele>1442.35180288</ele>
        <time>2016-07-24T10:17:19.006Z</time>
      </trkpt>
      <trkpt lat="44.59455" lon="5.22768">
        <ele>1444.25100032</ele>
        <time>2016-07-24T10:17:27.010Z</time>
      </trkpt>
      <trkpt lat="44.59465" lon="5.22758">
        <ele>1445.10040064</ele>
        <time>2016-07-24T10:17:35.002Z</time>
      </trkpt>
      <trkpt lat="44.59475" lon="5.22746">
        <ele>1446.70260224</ele>
        <time>2016-07-24T10:17:43.013Z</time>
      </trkpt>
      <trkpt lat="44.59486" lon="5.22739">
        <ele>1448.30220032</ele>
        <time>2016-07-24T10:17:51.011Z</time>
      </trkpt>
      <trkpt lat="44.59496" lon="5.22733">
        <ele>1449.90180096</ele>
        <time>2016-07-24T10:17:59.009Z</time>
      </trkpt>
      <trkpt lat="44.59508" lon="5.2273">
        <ele>1453.1014016</ele>
        <time>2016-07-24T10:18:15.007Z</time>
      </trkpt>
      <trkpt lat="44.59526" lon="5.22726">
        <ele>1454.70100224</ele>
        <time>2016-07-24T10:18:23.005Z</time>
      </trkpt>
      <trkpt lat="44.59538" lon="5.22723">
        <ele>1456.30020096</ele>
        <time>2016-07-24T10:18:31.001Z</time>
      </trkpt>
      <trkpt lat="44.59553" lon="5.22717">
        <ele>1459.55270144</ele>
        <time>2016-07-24T10:18:43.009Z</time>
      </trkpt>
      <trkpt lat="44.59562" lon="5.22712">
        <ele>1461.95270144</ele>
        <time>2016-07-24T10:18:51.009Z</time>
      </trkpt>
      <trkpt lat="44.5957" lon="5.22701">
        <ele>1463.85140096</ele>
        <time>2016-07-24T10:19:03.014Z</time>
      </trkpt>
      <trkpt lat="44.59578" lon="5.2269">
        <ele>1466.15240192</ele>
        <time>2016-07-24T10:19:15.008Z</time>
      </trkpt>
      <trkpt lat="44.5959" lon="5.22685">
        <ele>1468.5521024</ele>
        <time>2016-07-24T10:19:23.007Z</time>
      </trkpt>
      <trkpt lat="44.59599" lon="5.22678">
        <ele>1473.0507008</ele>
        <time>2016-07-24T10:19:35.007Z</time>
      </trkpt>
      <trkpt lat="44.59611" lon="5.22671">
        <ele>1474.50100224</ele>
        <time>2016-07-24T10:19:47.005Z</time>
      </trkpt>
      <trkpt lat="44.59623" lon="5.22668">
        <ele>1477.80560384</ele>
        <time>2016-07-24T10:19:59.014Z</time>
      </trkpt>
      <trkpt lat="44.59632" lon="5.22658">
        <ele>1480.50220032</ele>
        <time>2016-07-24T10:20:07.011Z</time>
      </trkpt>
      <trkpt lat="44.59643" lon="5.22656">
        <ele>1482.90280192</ele>
        <time>2016-07-24T10:20:19.014Z</time>
      </trkpt>
      <trkpt lat="44.59652" lon="5.22645">
        <ele>1485.3030016</ele>
        <time>2016-07-24T10:20:31.015Z</time>
      </trkpt>
      <trkpt lat="44.59667" lon="5.2264">
        <ele>1487.70200064</ele>
        <time>2016-07-24T10:20:43.010Z</time>
      </trkpt>
      <trkpt lat="44.59683" lon="5.22632">
        <ele>1489.95240192</ele>
        <time>2016-07-24T10:20:51.008Z</time>
      </trkpt>
      <trkpt lat="44.59693" lon="5.22627">
        <ele>1491.85090048</ele>
        <time>2016-07-24T10:21:03.009Z</time>
      </trkpt>
      <trkpt lat="44.59704" lon="5.22623">
        <ele>1492.4515008</ele>
        <time>2016-07-24T10:21:19.015Z</time>
      </trkpt>
      <trkpt lat="44.59715" lon="5.22611">
        <ele>1495.05040128</ele>
        <time>2016-07-24T10:21:35.004Z</time>
      </trkpt>
      <trkpt lat="44.59721" lon="5.22596">
        <ele>1495.349850134</ele>
        <time>2016-07-24T10:21:51.008Z</time>
      </trkpt>
      <trkpt lat="44.59731" lon="5.22586">
        <ele>1495</ele>
        <time>2016-07-24T10:21:59.006Z</time>
      </trkpt>
      <trkpt lat="44.59742" lon="5.22572">
        <ele>1495</ele>
        <time>2016-07-24T10:22:11.012Z</time>
      </trkpt>
      <trkpt lat="44.59754" lon="5.22562">
        <ele>1495</ele>
        <time>2016-07-24T10:22:23.009Z</time>
      </trkpt>
      <trkpt lat="44.59767" lon="5.22556">
        <ele>1494.34899968</ele>
        <time>2016-07-24T10:22:31.010Z</time>
      </trkpt>
      <trkpt lat="44.59791" lon="5.22552">
        <ele>1494.85040128</ele>
        <time>2016-07-24T10:22:43.004Z</time>
      </trkpt>
      <trkpt lat="44.59801" lon="5.22559">
        <ele>1496.3014016</ele>
        <time>2016-07-24T10:22:51.007Z</time>
      </trkpt>
      <trkpt lat="44.59813" lon="5.22567">
        <ele>1498.700298709</ele>
        <time>2016-07-24T10:23:03.010Z</time>
      </trkpt>
      <trkpt lat="44.59821" lon="5.22577">
        <ele>1500.3001019901</ele>
        <time>2016-07-24T10:23:11.004Z</time>
      </trkpt>
      <trkpt lat="44.59833" lon="5.22581">
        <ele>1501</ele>
        <time>2016-07-24T10:23:19.008Z</time>
      </trkpt>
      <trkpt lat="44.59842" lon="5.22587">
        <ele>1501</ele>
        <time>2016-07-24T10:23:27.003Z</time>
      </trkpt>
      <trkpt lat="44.59864" lon="5.22589">
        <ele>1500</ele>
        <time>2016-07-24T10:24:39.012Z</time>
      </trkpt>
      <trkpt lat="44.59885" lon="5.22593">
        <ele>1499.94979968</ele>
        <time>2016-07-24T10:24:47.002Z</time>
      </trkpt>
      <trkpt lat="44.59908" lon="5.22597">
        <ele>1499.14969984</ele>
        <time>2016-07-24T10:24:55.003Z</time>
      </trkpt>
      <trkpt lat="44.59929" lon="5.22605">
        <ele>1497.69839872</ele>
        <time>2016-07-24T10:25:03.008Z</time>
      </trkpt>
      <trkpt lat="44.59951" lon="5.22614">
        <ele>1497.4512</ele>
        <time>2016-07-24T10:25:11.012Z</time>
      </trkpt>
      <trkpt lat="44.59982" lon="5.22616">
        <ele>1498</ele>
        <time>2016-07-24T10:25:23.005Z</time>
      </trkpt>
      <trkpt lat="44.59996" lon="5.22621">
        <ele>1497.0985984</ele>
        <time>2016-07-24T10:25:31.007Z</time>
      </trkpt>
      <trkpt lat="44.60011" lon="5.22623">
        <ele>1495.4777984</ele>
        <time>2016-07-24T10:25:39.111Z</time>
      </trkpt>
      <trkpt lat="44.60025" lon="5.22615">
        <ele>1493.89819904</ele>
        <time>2016-07-24T10:25:47.009Z</time>
      </trkpt>
      <trkpt lat="44.60053" lon="5.22606">
        <ele>1492</ele>
        <time>2016-07-24T10:25:59.007Z</time>
      </trkpt>
      <trkpt lat="44.60069" lon="5.22611">
        <ele>1491.69939712</ele>
        <time>2016-07-24T10:26:07.001Z</time>
      </trkpt>
      <trkpt lat="44.60082" lon="5.22614">
        <ele>1486.89339904</ele>
        <time>2016-07-24T10:26:15.011Z</time>
      </trkpt>
      <trkpt lat="44.60092" lon="5.22611">
        <ele>1482.744</ele>
        <time>2016-07-24T10:26:23.012Z</time>
      </trkpt>
      <trkpt lat="44.60109" lon="5.22601">
        <ele>1480.54899968</ele>
        <time>2016-07-24T10:26:31.010Z</time>
      </trkpt>
      <trkpt lat="44.60125" lon="5.22591">
        <ele>1479.74939904</ele>
        <time>2016-07-24T10:26:39.006Z</time>
      </trkpt>
      <trkpt lat="44.60142" lon="5.2258">
        <ele>1479</ele>
        <time>2016-07-24T10:26:47.013Z</time>
      </trkpt>
      <trkpt lat="44.60155" lon="5.22567">
        <ele>1479</ele>
        <time>2016-07-24T10:26:55.003Z</time>
      </trkpt>
      <trkpt lat="44.60174" lon="5.22552">
        <ele>1479</ele>
        <time>2016-07-24T10:27:03.005Z</time>
      </trkpt>
      <trkpt lat="44.60195" lon="5.22538">
        <ele>1479</ele>
        <time>2016-07-24T10:27:15.008Z</time>
      </trkpt>
      <trkpt lat="44.60211" lon="5.22526">
        <ele>1479.65030016</ele>
        <time>2016-07-24T10:27:23.003Z</time>
      </trkpt>
      <trkpt lat="44.60234" lon="5.22509">
        <ele>1480</ele>
        <time>2016-07-24T10:27:35.000Z</time>
      </trkpt>
      <trkpt lat="44.60249" lon="5.22489">
        <ele>1480.65050112</ele>
        <time>2016-07-24T10:27:43.005Z</time>
      </trkpt>
      <trkpt lat="44.60262" lon="5.22478">
        <ele>1481.45130112</ele>
        <time>2016-07-24T10:27:51.013Z</time>
      </trkpt>
      <trkpt lat="44.6028" lon="5.22463">
        <ele>1482</ele>
        <time>2016-07-24T10:28:03.004Z</time>
      </trkpt>
      <trkpt lat="44.60288" lon="5.22442">
        <ele>1482</ele>
        <time>2016-07-24T10:28:11.012Z</time>
      </trkpt>
      <trkpt lat="44.60295" lon="5.22416">
        <ele>1480.7459968</ele>
        <time>2016-07-24T10:28:19.008Z</time>
      </trkpt>
      <trkpt lat="44.60313" lon="5.22383">
        <ele>1474.742496</ele>
        <time>2016-07-24T10:28:31.015Z</time>
      </trkpt>
      <trkpt lat="44.60328" lon="5.22344">
        <ele>1472</ele>
        <time>2016-07-24T10:28:43.017Z</time>
      </trkpt>
      <trkpt lat="44.60341" lon="5.22325">
        <ele>1472</ele>
        <time>2016-07-24T10:28:51.014Z</time>
      </trkpt>
      <trkpt lat="44.60357" lon="5.223">
        <ele>1473.00200448</ele>
        <time>2016-07-24T10:28:59.005Z</time>
      </trkpt>
      <trkpt lat="44.60369" lon="5.22281">
        <ele>1476.05060096</ele>
        <time>2016-07-24T10:29:07.006Z</time>
      </trkpt>
      <trkpt lat="44.60379" lon="5.22264">
        <ele>1476.8507008</ele>
        <time>2016-07-24T10:29:15.007Z</time>
      </trkpt>
      <trkpt lat="44.60386" lon="5.22246">
        <ele>1476.3494511733</ele>
        <time>2016-07-24T10:29:23.012Z</time>
      </trkpt>
      <trkpt lat="44.60383" lon="5.2222">
        <ele>1475.5495497573</ele>
        <time>2016-07-24T10:29:31.010Z</time>
      </trkpt>
      <trkpt lat="44.60378" lon="5.22199">
        <ele>1475.25020032</ele>
        <time>2016-07-24T10:29:39.002Z</time>
      </trkpt>
      <trkpt lat="44.60386" lon="5.22185">
        <ele>1476.0507008</ele>
        <time>2016-07-24T10:29:47.007Z</time>
      </trkpt>
      <trkpt lat="44.604" lon="5.2217">
        <ele>1476.85010048</ele>
        <time>2016-07-24T10:29:55.001Z</time>
      </trkpt>
      <trkpt lat="44.60414" lon="5.22166">
        <ele>1476.34969984</ele>
        <time>2016-07-24T10:30:03.003Z</time>
      </trkpt>
      <trkpt lat="44.60426" lon="5.22172">
        <ele>1476.85090048</ele>
        <time>2016-07-24T10:30:15.009Z</time>
      </trkpt>
      <trkpt lat="44.60436" lon="5.22158">
        <ele>1476.74919936</ele>
        <time>2016-07-24T10:30:59.008Z</time>
      </trkpt>
      <trkpt lat="44.6045" lon="5.22136">
        <ele>1476.05100032</ele>
        <time>2016-07-24T10:31:07.010Z</time>
      </trkpt>
      <trkpt lat="44.6047" lon="5.22119">
        <ele>1476.85110016</ele>
        <time>2016-07-24T10:31:15.011Z</time>
      </trkpt>
      <trkpt lat="44.6048" lon="5.22106">
        <ele>1475.69799936</ele>
        <time>2016-07-24T10:31:23.010Z</time>
      </trkpt>
      <trkpt lat="44.60496" lon="5.22086">
        <ele>1472.29519616</ele>
        <time>2016-07-24T10:31:31.008Z</time>
      </trkpt>
      <trkpt lat="44.60511" lon="5.22063">
        <ele>1468.49799936</ele>
        <time>2016-07-24T10:31:39.010Z</time>
      </trkpt>
      <trkpt lat="44.60519" lon="5.22049">
        <ele>1466.94939904</ele>
        <time>2016-07-24T10:31:47.006Z</time>
      </trkpt>
      <trkpt lat="44.60528" lon="5.2203">
        <ele>1466.14989952</ele>
        <time>2016-07-24T10:31:55.001Z</time>
      </trkpt>
      <trkpt lat="44.60533" lon="5.22014">
        <ele>1463.54909952</ele>
        <time>2016-07-24T10:32:11.009Z</time>
      </trkpt>
      <trkpt lat="44.60541" lon="5.21991">
        <ele>1461.7459968</ele>
        <time>2016-07-24T10:32:19.008Z</time>
      </trkpt>
      <trkpt lat="44.60557" lon="5.21964">
        <ele>1456.64819712</ele>
        <time>2016-07-24T10:32:31.006Z</time>
      </trkpt>
      <trkpt lat="44.60565" lon="5.21953">
        <ele>1453.49819904</ele>
        <time>2016-07-24T10:32:39.003Z</time>
      </trkpt>
      <trkpt lat="44.60574" lon="5.21941">
        <ele>1448.69339904</ele>
        <time>2016-07-24T10:32:47.011Z</time>
      </trkpt>
      <trkpt lat="44.6059" lon="5.21909">
        <ele>1441.49459712</ele>
        <time>2016-07-24T10:32:59.009Z</time>
      </trkpt>
      <trkpt lat="44.606" lon="5.21882">
        <ele>1436.8807952181</ele>
        <time>2016-07-24T10:33:07.009Z</time>
      </trkpt>
      <trkpt lat="44.60617" lon="5.21861">
        <ele>1436</ele>
        <time>2016-07-24T10:33:19.011Z</time>
      </trkpt>
      <trkpt lat="44.6063" lon="5.21847">
        <ele>1435.89739776</ele>
        <time>2016-07-24T10:33:27.013Z</time>
      </trkpt>
      <trkpt lat="44.60642" lon="5.21832">
        <ele>1434.29879808</ele>
        <time>2016-07-24T10:33:35.006Z</time>
      </trkpt>
      <trkpt lat="44.60653" lon="5.21796">
        <ele>1431.05170048</ele>
        <time>2016-07-24T10:33:47.017Z</time>
      </trkpt>
      <trkpt lat="44.60675" lon="5.21777">
        <ele>1432.50120192</ele>
        <time>2016-07-24T10:33:59.006Z</time>
      </trkpt>
      <trkpt lat="44.60682" lon="5.21759">
        <ele>1434.10020096</ele>
        <time>2016-07-24T10:34:07.001Z</time>
      </trkpt>
      <trkpt lat="44.60698" lon="5.2175">
        <ele>1435.7014016</ele>
        <time>2016-07-24T10:34:15.007Z</time>
      </trkpt>
      <trkpt lat="44.60717" lon="5.21739">
        <ele>1436</ele>
        <time>2016-07-24T10:34:23.011Z</time>
      </trkpt>
      <trkpt lat="44.60735" lon="5.21716">
        <ele>1436</ele>
        <time>2016-07-24T10:34:31.006Z</time>
      </trkpt>
      <trkpt lat="44.60751" lon="5.21694">
        <ele>1436.25110016</ele>
        <time>2016-07-24T10:34:39.011Z</time>
      </trkpt>
      <trkpt lat="44.60765" lon="5.21683">
        <ele>1437.90000128</ele>
        <time>2016-07-24T10:34:51.000Z</time>
      </trkpt>
      <trkpt lat="44.60779" lon="5.21676">
        <ele>1440.253504</ele>
        <time>2016-07-24T10:34:59.007Z</time>
      </trkpt>
      <trkpt lat="44.60783" lon="5.21662">
        <ele>1444.85110016</ele>
        <time>2016-07-24T10:35:15.011Z</time>
      </trkpt>
      <trkpt lat="44.60793" lon="5.21652">
        <ele>1446.30060032</ele>
        <time>2016-07-24T10:35:23.003Z</time>
      </trkpt>
      <trkpt lat="44.60801" lon="5.21636">
        <ele>1447.90120192</ele>
        <time>2016-07-24T10:35:31.006Z</time>
      </trkpt>
      <trkpt lat="44.60818" lon="5.21625">
        <ele>1450.30020096</ele>
        <time>2016-07-24T10:35:43.001Z</time>
      </trkpt>
      <trkpt lat="44.60839" lon="5.21602">
        <ele>1451.85050112</ele>
        <time>2016-07-24T10:35:55.005Z</time>
      </trkpt>
      <trkpt lat="44.60855" lon="5.21587">
        <ele>1452</ele>
        <time>2016-07-24T10:36:03.010Z</time>
      </trkpt>
      <trkpt lat="44.60876" lon="5.21561">
        <ele>1452</ele>
        <time>2016-07-24T10:36:15.004Z</time>
      </trkpt>
      <trkpt lat="44.60888" lon="5.2155">
        <ele>1453.30280192</ele>
        <time>2016-07-24T10:36:23.014Z</time>
      </trkpt>
      <trkpt lat="44.60901" lon="5.21533">
        <ele>1454.9030016</ele>
        <time>2016-07-24T10:36:31.015Z</time>
      </trkpt>
      <trkpt lat="44.60907" lon="5.2152">
        <ele>1456</ele>
        <time>2016-07-24T10:36:39.002Z</time>
      </trkpt>
      <trkpt lat="44.6093" lon="5.21494">
        <ele>1456.4498498783</ele>
        <time>2016-07-24T10:36:51.003Z</time>
      </trkpt>
      <trkpt lat="44.60936" lon="5.21482">
        <ele>1458.0013991605</ele>
        <time>2016-07-24T10:36:59.011Z</time>
      </trkpt>
      <trkpt lat="44.6094" lon="5.21469">
        <ele>1461.45180032</ele>
        <time>2016-07-24T10:37:11.018Z</time>
      </trkpt>
      <trkpt lat="44.60951" lon="5.21465">
        <ele>1462</ele>
        <time>2016-07-24T10:37:19.012Z</time>
      </trkpt>
      <trkpt lat="44.60961" lon="5.21454">
        <ele>1462.4515008</ele>
        <time>2016-07-24T10:37:31.015Z</time>
      </trkpt>
      <trkpt lat="44.6097" lon="5.21441">
        <ele>1463.25100032</ele>
        <time>2016-07-24T10:37:39.010Z</time>
      </trkpt>
      <trkpt lat="44.60977" lon="5.2142">
        <ele>1464.05110016</ele>
        <time>2016-07-24T10:37:47.011Z</time>
      </trkpt>
      <trkpt lat="44.60986" lon="5.21395">
        <ele>1464.85060096</ele>
        <time>2016-07-24T10:37:55.006Z</time>
      </trkpt>
      <trkpt lat="44.61002" lon="5.21365">
        <ele>1466.05130112</ele>
        <time>2016-07-24T10:38:07.013Z</time>
      </trkpt>
      <trkpt lat="44.61014" lon="5.21357">
        <ele>1466.85060096</ele>
        <time>2016-07-24T10:38:15.006Z</time>
      </trkpt>
      <trkpt lat="44.61024" lon="5.21343">
        <ele>1468.30100224</ele>
        <time>2016-07-24T10:38:23.005Z</time>
      </trkpt>
      <trkpt lat="44.61045" lon="5.21336">
        <ele>1469.45020032</ele>
        <time>2016-07-24T10:38:31.002Z</time>
      </trkpt>
      <trkpt lat="44.6107" lon="5.21316">
        <ele>1470</ele>
        <time>2016-07-24T10:38:43.009Z</time>
      </trkpt>
      <trkpt lat="44.61087" lon="5.21299">
        <ele>1469.54909952</ele>
        <time>2016-07-24T10:38:51.009Z</time>
      </trkpt>
      <trkpt lat="44.61097" lon="5.21283">
        <ele>1469.25040128</ele>
        <time>2016-07-24T10:38:59.004Z</time>
      </trkpt>
      <trkpt lat="44.61109" lon="5.21261">
        <ele>1469.94939904</ele>
        <time>2016-07-24T10:39:07.006Z</time>
      </trkpt>
      <trkpt lat="44.61128" lon="5.21236">
        <ele>1468.74909952</ele>
        <time>2016-07-24T10:39:19.009Z</time>
      </trkpt>
      <trkpt lat="44.61142" lon="5.2122">
        <ele>1468.1024</ele>
        <time>2016-07-24T10:39:27.012Z</time>
      </trkpt>
      <trkpt lat="44.6115" lon="5.2121">
        <ele>1469.70000128</ele>
        <time>2016-07-24T10:39:35.000Z</time>
      </trkpt>
      <trkpt lat="44.61172" lon="5.21196">
        <ele>1473</ele>
        <time>2016-07-24T10:39:47.011Z</time>
      </trkpt>
      <trkpt lat="44.6118" lon="5.21177">
        <ele>1473</ele>
        <time>2016-07-24T10:39:55.008Z</time>
      </trkpt>
      <trkpt lat="44.61194" lon="5.2114">
        <ele>1472</ele>
        <time>2016-07-24T10:40:07.009Z</time>
      </trkpt>
      <trkpt lat="44.61208" lon="5.21103">
        <ele>1471.74899968</ele>
        <time>2016-07-24T10:40:19.010Z</time>
      </trkpt>
      <trkpt lat="44.61218" lon="5.21079">
        <ele>1470.94959872</ele>
        <time>2016-07-24T10:40:27.004Z</time>
      </trkpt>
      <trkpt lat="44.61233" lon="5.21068">
        <ele>1470.14909952</ele>
        <time>2016-07-24T10:40:35.009Z</time>
      </trkpt>
      <trkpt lat="44.61242" lon="5.21052">
        <ele>1468.69819904</ele>
        <time>2016-07-24T10:40:43.009Z</time>
      </trkpt>
      <trkpt lat="44.61246" lon="5.21034">
        <ele>1467.8636876191</ele>
        <time>2016-07-24T10:40:50.009Z</time>
      </trkpt>
      <trkpt lat="44.61249" lon="5.21008">
        <ele>1464</ele>
        <time>2016-07-24T10:41:06.009Z</time>
      </trkpt>
      <trkpt lat="44.61257" lon="5.20995">
        <ele>1464</ele>
        <time>2016-07-24T10:41:14.012Z</time>
      </trkpt>
      <trkpt lat="44.61262" lon="5.20973">
        <ele>1462.89839872</ele>
        <time>2016-07-24T10:41:22.008Z</time>
      </trkpt>
      <trkpt lat="44.61276" lon="5.20956">
        <ele>1461.6492992</ele>
        <time>2016-07-24T10:41:30.007Z</time>
      </trkpt>
      <trkpt lat="44.61288" lon="5.20939">
        <ele>1461</ele>
        <time>2016-07-24T10:41:38.014Z</time>
      </trkpt>
      <trkpt lat="44.61299" lon="5.20915">
        <ele>1461</ele>
        <time>2016-07-24T10:41:46.015Z</time>
      </trkpt>
      <trkpt lat="44.61298" lon="5.20896">
        <ele>1461.75120128</ele>
        <time>2016-07-24T10:41:54.012Z</time>
      </trkpt>
      <trkpt lat="44.61303" lon="5.20882">
        <ele>1463.90260224</ele>
        <time>2016-07-24T10:42:06.013Z</time>
      </trkpt>
      <trkpt lat="44.61305" lon="5.20867">
        <ele>1465.50160128</ele>
        <time>2016-07-24T10:42:14.008Z</time>
      </trkpt>
      <trkpt lat="44.61309" lon="5.20853">
        <ele>1467.90240256</ele>
        <time>2016-07-24T10:42:26.012Z</time>
      </trkpt>
      <trkpt lat="44.61309" lon="5.20838">
        <ele>1474.3008</ele>
        <time>2016-07-24T10:42:38.004Z</time>
      </trkpt>
      <trkpt lat="44.61312" lon="5.20818">
        <ele>1476.75050112</ele>
        <time>2016-07-24T10:42:54.005Z</time>
      </trkpt>
      <trkpt lat="44.61317" lon="5.20804">
        <ele>1480.80400128</ele>
        <time>2016-07-24T10:43:06.010Z</time>
      </trkpt>
      <trkpt lat="44.61318" lon="5.20787">
        <ele>1486.1008</ele>
        <time>2016-07-24T10:43:22.004Z</time>
      </trkpt>
      <trkpt lat="44.61318" lon="5.20772">
        <ele>1489.4545024</ele>
        <time>2016-07-24T10:43:38.015Z</time>
      </trkpt>
      <trkpt lat="44.61328" lon="5.20764">
        <ele>1492.60040192</ele>
        <time>2016-07-24T10:43:58.001Z</time>
      </trkpt>
      <trkpt lat="44.6134" lon="5.20747">
        <ele>1496.45090048</ele>
        <time>2016-07-24T10:44:11.009Z</time>
      </trkpt>
      <trkpt lat="44.61345" lon="5.20736">
        <ele>1497.50040064</ele>
        <time>2016-07-24T10:44:19.002Z</time>
      </trkpt>
      <trkpt lat="44.6135" lon="5.20723">
        <ele>1499.1024</ele>
        <time>2016-07-24T10:44:27.012Z</time>
      </trkpt>
      <trkpt lat="44.61358" lon="5.20704">
        <ele>1501.75060096</ele>
        <time>2016-07-24T10:44:39.002Z</time>
      </trkpt>
      <trkpt lat="44.61361" lon="5.20692">
        <ele>1504.05040128</ele>
        <time>2016-07-24T10:44:47.004Z</time>
      </trkpt>
      <trkpt lat="44.61359" lon="5.20677">
        <ele>1504.85020032</ele>
        <time>2016-07-24T10:44:55.002Z</time>
      </trkpt>
      <trkpt lat="44.61365" lon="5.2066">
        <ele>1509.4507008</ele>
        <time>2016-07-24T10:45:11.007Z</time>
      </trkpt>
      <trkpt lat="44.61373" lon="5.20642">
        <ele>1510.50060032</ele>
        <time>2016-07-24T10:45:19.003Z</time>
      </trkpt>
      <trkpt lat="44.61383" lon="5.20632">
        <ele>1512</ele>
        <time>2016-07-24T10:45:27.009Z</time>
      </trkpt>
      <trkpt lat="44.61385" lon="5.20615">
        <ele>1512.25090048</ele>
        <time>2016-07-24T10:45:39.009Z</time>
      </trkpt>
      <trkpt lat="44.61393" lon="5.20594">
        <ele>1513</ele>
        <time>2016-07-24T10:45:47.011Z</time>
      </trkpt>
      <trkpt lat="44.614" lon="5.20567">
        <ele>1513</ele>
        <time>2016-07-24T10:45:55.011Z</time>
      </trkpt>
      <trkpt lat="44.61414" lon="5.20535">
        <ele>1513.05050112</ele>
        <time>2016-07-24T10:46:07.005Z</time>
      </trkpt>
      <trkpt lat="44.61424" lon="5.2053">
        <ele>1515.2525056</ele>
        <time>2016-07-24T10:46:19.005Z</time>
      </trkpt>
      <trkpt lat="44.61426" lon="5.2051">
        <ele>1519</ele>
        <time>2016-07-24T10:46:31.009Z</time>
      </trkpt>
      <trkpt lat="44.61427" lon="5.20496">
        <ele>1520.10120192</ele>
        <time>2016-07-24T10:46:47.006Z</time>
      </trkpt>
      <trkpt lat="44.61437" lon="5.2048">
        <ele>1521.70020096</ele>
        <time>2016-07-24T10:46:55.001Z</time>
      </trkpt>
      <trkpt lat="44.61437" lon="5.20459">
        <ele>1519.0993002844</ele>
        <time>2016-07-24T10:47:11.008Z</time>
      </trkpt>
      <trkpt lat="44.61444" lon="5.20444">
        <ele>1518</ele>
        <time>2016-07-24T10:47:19.008Z</time>
      </trkpt>
      <trkpt lat="44.61454" lon="5.20433">
        <ele>1522.25140096</ele>
        <time>2016-07-24T10:47:39.014Z</time>
      </trkpt>
      <trkpt lat="44.61461" lon="5.20415">
        <ele>1523.10220032</ele>
        <time>2016-07-24T10:47:47.011Z</time>
      </trkpt>
      <trkpt lat="44.61464" lon="5.20396">
        <ele>1527.00800256</ele>
        <time>2016-07-24T10:47:59.010Z</time>
      </trkpt>
      <trkpt lat="44.61471" lon="5.20378">
        <ele>1532.54869888</ele>
        <time>2016-07-24T10:48:11.013Z</time>
      </trkpt>
      <trkpt lat="44.61476" lon="5.20362">
        <ele>1532</ele>
        <time>2016-07-24T10:48:23.010Z</time>
      </trkpt>
      <trkpt lat="44.61468" lon="5.2035">
        <ele>1532.9001009651</ele>
        <time>2016-07-24T10:48:31.006Z</time>
      </trkpt>
      <trkpt lat="44.61471" lon="5.20335">
        <ele>1534.52340224</ele>
        <time>2016-07-24T10:48:39.117Z</time>
      </trkpt>
      <trkpt lat="44.61478" lon="5.20324">
        <ele>1536.05090048</ele>
        <time>2016-07-24T10:48:47.009Z</time>
      </trkpt>
      <trkpt lat="44.61481" lon="5.20309">
        <ele>1537.2507008</ele>
        <time>2016-07-24T10:48:59.007Z</time>
      </trkpt>
      <trkpt lat="44.61491" lon="5.20298">
        <ele>1538.9014016</ele>
        <time>2016-07-24T10:49:11.007Z</time>
      </trkpt>
      <trkpt lat="44.61487" lon="5.20281">
        <ele>1546</ele>
        <time>2016-07-24T11:04:27.111Z</time>
      </trkpt>
      <trkpt lat="44.61487" lon="5.20267">
        <ele>1540.74369664</ele>
        <time>2016-07-24T11:04:44.009Z</time>
      </trkpt>
      <trkpt lat="44.61483" lon="5.20253">
        <ele>1535.1971968</ele>
        <time>2016-07-24T11:04:56.007Z</time>
      </trkpt>
      <trkpt lat="44.61482" lon="5.20232">
        <ele>1528.9450944</ele>
        <time>2016-07-24T11:05:08.007Z</time>
      </trkpt>
      <trkpt lat="44.61492" lon="5.20217">
        <ele>1521.5982005851</ele>
        <time>2016-07-24T11:05:20.008Z</time>
      </trkpt>
      <trkpt lat="44.61492" lon="5.20201">
        <ele>1518.1033072464</ele>
        <time>2016-07-24T11:05:28.003Z</time>
      </trkpt>
      <trkpt lat="44.61488" lon="5.20179">
        <ele>1511.246496</ele>
        <time>2016-07-24T11:05:40.007Z</time>
      </trkpt>
      <trkpt lat="44.61484" lon="5.20149">
        <ele>1507.39799552</ele>
        <time>2016-07-24T11:05:48.005Z</time>
      </trkpt>
      <trkpt lat="44.61479" lon="5.20126">
        <ele>1504.1939968</ele>
        <time>2016-07-24T11:05:56.015Z</time>
      </trkpt>
      <trkpt lat="44.6148" lon="5.20096">
        <ele>1504</ele>
        <time>2016-07-24T11:06:04.005Z</time>
      </trkpt>
      <trkpt lat="44.61499" lon="5.20064">
        <ele>1505.10180096</ele>
        <time>2016-07-24T11:06:12.009Z</time>
      </trkpt>
      <trkpt lat="44.61521" lon="5.20039">
        <ele>1505.29939968</ele>
        <time>2016-07-24T11:06:20.003Z</time>
      </trkpt>
      <trkpt lat="44.61542" lon="5.20016">
        <ele>1497.9516541523</ele>
        <time>2016-07-24T11:06:32.004Z</time>
      </trkpt>
      <trkpt lat="44.61539" lon="5.19972">
        <ele>1487.7482420804</ele>
        <time>2016-07-24T11:06:44.005Z</time>
      </trkpt>
      <trkpt lat="44.61532" lon="5.19944">
        <ele>1477.6878383754</ele>
        <time>2016-07-24T11:06:56.001Z</time>
      </trkpt>
      <trkpt lat="44.61537" lon="5.19923">
        <ele>1471.7496502099</ele>
        <time>2016-07-24T11:07:04.003Z</time>
      </trkpt>
      <trkpt lat="44.61552" lon="5.19895">
        <ele>1463.94669824</ele>
        <time>2016-07-24T11:07:12.003Z</time>
      </trkpt>
      <trkpt lat="44.61568" lon="5.19863">
        <ele>1457.2454976</ele>
        <time>2016-07-24T11:07:20.009Z</time>
      </trkpt>
      <trkpt lat="44.6158" lon="5.19829">
        <ele>1453.0949040448</ele>
        <time>2016-07-24T11:07:28.010Z</time>
      </trkpt>
      <trkpt lat="44.61595" lon="5.19788">
        <ele>1447.3002993076</ele>
        <time>2016-07-24T11:07:40.005Z</time>
      </trkpt>
      <trkpt lat="44.61608" lon="5.19777">
        <ele>1444.4899968</ele>
        <time>2016-07-24T11:07:48.010Z</time>
      </trkpt>
      <trkpt lat="44.61621" lon="5.1975">
        <ele>1436.4939904</ele>
        <time>2016-07-24T11:07:56.006Z</time>
      </trkpt>
      <trkpt lat="44.61627" lon="5.19747">
        <ele>1433.0075528681</ele>
        <time>2016-07-24T11:08:04.003Z</time>
      </trkpt>
      <trkpt lat="44.61629" lon="5.19741">
        <ele>1433.44889984</ele>
        <time>2016-07-24T11:10:24.011Z</time>
      </trkpt>
      <trkpt lat="44.61642" lon="5.19737">
        <ele>1427.04489728</ele>
        <time>2016-07-24T11:10:32.003Z</time>
      </trkpt>
      <trkpt lat="44.61648" lon="5.19719">
        <ele>1410.484992</ele>
        <time>2016-07-24T11:10:44.015Z</time>
      </trkpt>
      <trkpt lat="44.61666" lon="5.19707">
        <ele>1403.19199744</ele>
        <time>2016-07-24T11:10:52.010Z</time>
      </trkpt>
      <trkpt lat="44.61681" lon="5.19703">
        <ele>1396.64548992</ele>
        <time>2016-07-24T11:11:00.005Z</time>
      </trkpt>
      <trkpt lat="44.61702" lon="5.19712">
        <ele>1389.44009856</ele>
        <time>2016-07-24T11:11:08.011Z</time>
      </trkpt>
      <trkpt lat="44.61713" lon="5.19717">
        <ele>1379.7454976</ele>
        <time>2016-07-24T11:11:25.009Z</time>
      </trkpt>
      <trkpt lat="44.61719" lon="5.19732">
        <ele>1372.79919872</ele>
        <time>2016-07-24T11:11:39.002Z</time>
      </trkpt>
      <trkpt lat="44.61726" lon="5.19751">
        <ele>1367.24369664</ele>
        <time>2016-07-24T11:11:51.009Z</time>
      </trkpt>
      <trkpt lat="44.61731" lon="5.19766">
        <ele>1350.49459712</ele>
        <time>2016-07-24T11:12:16.009Z</time>
      </trkpt>
      <trkpt lat="44.61731" lon="5.19782">
        <ele>1346.2459968</ele>
        <time>2016-07-24T11:12:24.008Z</time>
      </trkpt>
      <trkpt lat="44.61726" lon="5.19803">
        <ele>1340.13789824</ele>
        <time>2016-07-24T11:12:32.011Z</time>
      </trkpt>
      <trkpt lat="44.61715" lon="5.19829">
        <ele>1331.87579776</ele>
        <time>2016-07-24T11:12:40.106Z</time>
      </trkpt>
      <trkpt lat="44.61725" lon="5.19873">
        <ele>1324.49459712</ele>
        <time>2016-07-24T11:12:51.009Z</time>
      </trkpt>
      <trkpt lat="44.61741" lon="5.19895">
        <ele>1319.69459712</ele>
        <time>2016-07-24T11:12:59.009Z</time>
      </trkpt>
      <trkpt lat="44.61751" lon="5.19926">
        <ele>1314.8957952</ele>
        <time>2016-07-24T11:13:07.007Z</time>
      </trkpt>
      <trkpt lat="44.61779" lon="5.19936">
        <ele>1303.7364928</ele>
        <time>2016-07-24T11:13:21.015Z</time>
      </trkpt>
      <trkpt lat="44.61788" lon="5.19891">
        <ele>1292.4909952</ele>
        <time>2016-07-24T11:13:33.009Z</time>
      </trkpt>
      <trkpt lat="44.61794" lon="5.19858">
        <ele>1285.0007936</ele>
        <time>2016-07-24T11:13:40.999Z</time>
      </trkpt>
      <trkpt lat="44.61813" lon="5.19835">
        <ele>1278.59279616</ele>
        <time>2016-07-24T11:13:49.009Z</time>
      </trkpt>
      <trkpt lat="44.61828" lon="5.19822">
        <ele>1273.79279616</ele>
        <time>2016-07-24T11:13:55.009Z</time>
      </trkpt>
      <trkpt lat="44.61845" lon="5.19825">
        <ele>1268.7454976</ele>
        <time>2016-07-24T11:14:03.009Z</time>
      </trkpt>
      <trkpt lat="44.61859" lon="5.1986">
        <ele>1266</ele>
        <time>2016-07-24T11:14:11.009Z</time>
      </trkpt>
      <trkpt lat="44.61861" lon="5.19894">
        <ele>1265.79799552</ele>
        <time>2016-07-24T11:14:19.005Z</time>
      </trkpt>
      <trkpt lat="44.61859" lon="5.19935">
        <ele>1262.59879936</ele>
        <time>2016-07-24T11:14:27.003Z</time>
      </trkpt>
      <trkpt lat="44.61852" lon="5.19961">
        <ele>1260.64729856</ele>
        <time>2016-07-24T11:14:33.009Z</time>
      </trkpt>
      <trkpt lat="44.61856" lon="5.20011">
        <ele>1256.39639808</ele>
        <time>2016-07-24T11:14:45.009Z</time>
      </trkpt>
      <trkpt lat="44.61869" lon="5.20039">
        <ele>1253.64729856</ele>
        <time>2016-07-24T11:14:53.009Z</time>
      </trkpt>
      <trkpt lat="44.61878" lon="5.2004">
        <ele>1251</ele>
        <time>2016-07-24T11:15:50.009Z</time>
      </trkpt>
      <trkpt lat="44.61876" lon="5.20041">
        <ele>1250.64909952</ele>
        <time>2016-07-24T11:17:22.009Z</time>
      </trkpt>
      <trkpt lat="44.61861" lon="5.20038">
        <ele>1250</ele>
        <time>2016-07-24T11:19:08.748Z</time>
      </trkpt>
      <trkpt lat="44.61872" lon="5.20037">
        <ele>1250</ele>
        <time>2016-07-24T11:19:45.013Z</time>
      </trkpt>
      <trkpt lat="44.61881" lon="5.20044">
        <ele>1250</ele>
        <time>2016-07-24T11:20:05.008Z</time>
      </trkpt>
      <trkpt lat="44.61872" lon="5.20035">
        <ele>1250.0496</ele>
        <time>2016-07-24T11:20:48.004Z</time>
      </trkpt>
      <trkpt lat="44.61881" lon="5.20049">
        <ele>1249</ele>
        <time>2016-07-24T11:21:56.009Z</time>
      </trkpt>
      <trkpt lat="44.61893" lon="5.20037">
        <ele>1248.44949888</ele>
        <time>2016-07-24T11:23:24.005Z</time>
      </trkpt>
      <trkpt lat="44.61906" lon="5.20022">
        <ele>1244.99639808</ele>
        <time>2016-07-24T11:23:36.009Z</time>
      </trkpt>
      <trkpt lat="44.61926" lon="5.2">
        <ele>1242.5432978853</ele>
        <time>2016-07-24T11:23:44.009Z</time>
      </trkpt>
      <trkpt lat="44.61949" lon="5.19976">
        <ele>1237.84189568</ele>
        <time>2016-07-24T11:23:52.009Z</time>
      </trkpt>
      <trkpt lat="44.61963" lon="5.19956">
        <ele>1232.44189568</ele>
        <time>2016-07-24T11:23:58.009Z</time>
      </trkpt>
      <trkpt lat="44.61992" lon="5.19938">
        <ele>1222.4909952</ele>
        <time>2016-07-24T11:24:08.009Z</time>
      </trkpt>
      <trkpt lat="44.6202" lon="5.19922">
        <ele>1216.74369664</ele>
        <time>2016-07-24T11:24:16.009Z</time>
      </trkpt>
      <trkpt lat="44.62046" lon="5.19909">
        <ele>1214.09819904</ele>
        <time>2016-07-24T11:24:23.009Z</time>
      </trkpt>
      <trkpt lat="44.62071" lon="5.19893">
        <ele>1209.4901888</ele>
        <time>2016-07-24T11:24:31.007Z</time>
      </trkpt>
      <trkpt lat="44.62083" lon="5.19874">
        <ele>1196.4909952</ele>
        <time>2016-07-24T11:24:41.009Z</time>
      </trkpt>
      <trkpt lat="44.62096" lon="5.1987">
        <ele>1188.64859776</ele>
        <time>2016-07-24T11:24:49.002Z</time>
      </trkpt>
      <trkpt lat="44.62109" lon="5.19873">
        <ele>1183.04369664</ele>
        <time>2016-07-24T11:24:57.009Z</time>
      </trkpt>
      <trkpt lat="44.62126" lon="5.19856">
        <ele>1175.4909952</ele>
        <time>2016-07-24T11:25:05.009Z</time>
      </trkpt>
      <trkpt lat="44.62153" lon="5.19835">
        <ele>1163.4969984</ele>
        <time>2016-07-24T11:25:17.003Z</time>
      </trkpt>
      <trkpt lat="44.62175" lon="5.1984">
        <ele>1155.99279616</ele>
        <time>2016-07-24T11:25:26.009Z</time>
      </trkpt>
      <trkpt lat="44.62191" lon="5.19839">
        <ele>1149.59279616</ele>
        <time>2016-07-24T11:25:34.009Z</time>
      </trkpt>
      <trkpt lat="44.62211" lon="5.19827">
        <ele>1143.99279616</ele>
        <time>2016-07-24T11:25:41.009Z</time>
      </trkpt>
      <trkpt lat="44.62229" lon="5.19807">
        <ele>1139.19279616</ele>
        <time>2016-07-24T11:25:47.009Z</time>
      </trkpt>
      <trkpt lat="44.62236" lon="5.19766">
        <ele>1133.7356032732</ele>
        <time>2016-07-24T11:26:00.009Z</time>
      </trkpt>
      <trkpt lat="44.62246" lon="5.19728">
        <ele>1121.84009856</ele>
        <time>2016-07-24T11:26:12.011Z</time>
      </trkpt>
      <trkpt lat="44.62265" lon="5.19704">
        <ele>1112.69459712</ele>
        <time>2016-07-24T11:26:24.009Z</time>
      </trkpt>
      <trkpt lat="44.62278" lon="5.19689">
        <ele>1108.94729856</ele>
        <time>2016-07-24T11:26:32.009Z</time>
      </trkpt>
      <trkpt lat="44.62283" lon="5.19658">
        <ele>1106.39759616</ele>
        <time>2016-07-24T11:26:40.006Z</time>
      </trkpt>
      <trkpt lat="44.6226" lon="5.19618">
        <ele>1103.1971968</ele>
        <time>2016-07-24T11:26:48.007Z</time>
      </trkpt>
      <trkpt lat="44.62244" lon="5.19594">
        <ele>1098.44369664</ele>
        <time>2016-07-24T11:26:55.009Z</time>
      </trkpt>
      <trkpt lat="44.62221" lon="5.19569">
        <ele>1093.29399808</ele>
        <time>2016-07-24T11:27:03.010Z</time>
      </trkpt>
      <trkpt lat="44.62221" lon="5.19529">
        <ele>1088.24579328</ele>
        <time>2016-07-24T11:27:11.006Z</time>
      </trkpt>
      <trkpt lat="44.62233" lon="5.1947">
        <ele>1081.19639808</ele>
        <time>2016-07-24T11:27:23.009Z</time>
      </trkpt>
      <trkpt lat="44.62243" lon="5.19442">
        <ele>1076.0108624066</ele>
        <time>2016-07-24T11:27:37.009Z</time>
      </trkpt>
      <trkpt lat="44.62244" lon="5.1946">
        <ele>1077.5964032</ele>
        <time>2016-07-24T11:30:49.009Z</time>
      </trkpt>
      <trkpt lat="44.62261" lon="5.1945">
        <ele>1073.30920192</ele>
        <time>2016-07-24T11:30:56.909Z</time>
      </trkpt>
      <trkpt lat="44.62273" lon="5.1944">
        <ele>1063.5892096</ele>
        <time>2016-07-24T11:31:05.009Z</time>
      </trkpt>
      <trkpt lat="44.6229" lon="5.19438">
        <ele>1057.7437056</ele>
        <time>2016-07-24T11:31:13.009Z</time>
      </trkpt>
      <trkpt lat="44.62314" lon="5.19437">
        <ele>1047.44011008</ele>
        <time>2016-07-24T11:31:25.011Z</time>
      </trkpt>
      <trkpt lat="44.62329" lon="5.19437">
        <ele>1042.4437056</ele>
        <time>2016-07-24T11:31:32.009Z</time>
      </trkpt>
      <trkpt lat="44.62357" lon="5.19439">
        <ele>1038.2982016</ele>
        <time>2016-07-24T11:31:44.009Z</time>
      </trkpt>
      <trkpt lat="44.62373" lon="5.19456">
        <ele>1035.1473024</ele>
        <time>2016-07-24T11:31:55.009Z</time>
      </trkpt>
      <trkpt lat="44.62378" lon="5.19471">
        <ele>1035</ele>
        <time>2016-07-24T11:32:03.016Z</time>
      </trkpt>
      <trkpt lat="44.62395" lon="5.19487">
        <ele>1035.8508992</ele>
        <time>2016-07-24T11:32:14.009Z</time>
      </trkpt>
      <trkpt lat="44.62392" lon="5.19507">
        <ele>1036.65049984</ele>
        <time>2016-07-24T11:32:22.005Z</time>
      </trkpt>
      <trkpt lat="44.62392" lon="5.19526">
        <ele>1037.45139968</ele>
        <time>2016-07-24T11:32:30.014Z</time>
      </trkpt>
      <trkpt lat="44.62395" lon="5.19545">
        <ele>1038</ele>
        <time>2016-07-24T11:32:46.009Z</time>
      </trkpt>
      <trkpt lat="44.62401" lon="5.19559">
        <ele>1038</ele>
        <time>2016-07-24T11:32:54.009Z</time>
      </trkpt>
      <trkpt lat="44.62405" lon="5.19586">
        <ele>1039.05109888</ele>
        <time>2016-07-24T11:33:06.011Z</time>
      </trkpt>
      <trkpt lat="44.62416" lon="5.19621">
        <ele>1040.50119936</ele>
        <time>2016-07-24T11:33:18.006Z</time>
      </trkpt>
      <trkpt lat="44.62431" lon="5.19651">
        <ele>1042.10319872</ele>
        <time>2016-07-24T11:33:26.016Z</time>
      </trkpt>
      <trkpt lat="44.62446" lon="5.19679">
        <ele>1043.70259968</ele>
        <time>2016-07-24T11:33:34.013Z</time>
      </trkpt>
      <trkpt lat="44.62463" lon="5.19707">
        <ele>1044</ele>
        <time>2016-07-24T11:33:42.005Z</time>
      </trkpt>
      <trkpt lat="44.62469" lon="5.19738">
        <ele>1044.4500992</ele>
        <time>2016-07-24T11:33:50.001Z</time>
      </trkpt>
      <trkpt lat="44.62473" lon="5.19769">
        <ele>1045.75239808</ele>
        <time>2016-07-24T11:33:58.008Z</time>
      </trkpt>
      <trkpt lat="44.62471" lon="5.19793">
        <ele>1047.9488</ele>
        <time>2016-07-24T11:34:06.012Z</time>
      </trkpt>
      <trkpt lat="44.62481" lon="5.19824">
        <ele>1047.1488</ele>
        <time>2016-07-24T11:34:14.012Z</time>
      </trkpt>
      <trkpt lat="44.62497" lon="5.19857">
        <ele>1047</ele>
        <time>2016-07-24T11:34:22.008Z</time>
      </trkpt>
      <trkpt lat="44.62507" lon="5.19888">
        <ele>1048.1017984</ele>
        <time>2016-07-24T11:34:31.009Z</time>
      </trkpt>
      <trkpt lat="44.62522" lon="5.19898">
        <ele>1049</ele>
        <time>2016-07-24T11:34:39.010Z</time>
      </trkpt>
      <trkpt lat="44.62534" lon="5.19922">
        <ele>1049.30239744</ele>
        <time>2016-07-24T11:34:47.012Z</time>
      </trkpt>
      <trkpt lat="44.6256" lon="5.19949">
        <ele>1051.3508992</ele>
        <time>2016-07-24T11:34:59.009Z</time>
      </trkpt>
      <trkpt lat="44.62583" lon="5.19974">
        <ele>1052</ele>
        <time>2016-07-24T11:35:07.003Z</time>
      </trkpt>
      <trkpt lat="44.626" lon="5.20002">
        <ele>1052</ele>
        <time>2016-07-24T11:35:15.006Z</time>
      </trkpt>
      <trkpt lat="44.62615" lon="5.20031">
        <ele>1053.50219776</ele>
        <time>2016-07-24T11:35:23.011Z</time>
      </trkpt>
      <trkpt lat="44.62629" lon="5.2006">
        <ele>1055.10059776</ele>
        <time>2016-07-24T11:35:31.003Z</time>
      </trkpt>
      <trkpt lat="44.6264" lon="5.20091">
        <ele>1056.70139904</ele>
        <time>2016-07-24T11:35:39.007Z</time>
      </trkpt>
      <trkpt lat="44.62653" lon="5.20119">
        <ele>1057.84930048</ele>
        <time>2016-07-24T11:35:47.007Z</time>
      </trkpt>
      <trkpt lat="44.6267" lon="5.20136">
        <ele>1057.0496</ele>
        <time>2016-07-24T11:35:55.004Z</time>
      </trkpt>
      <trkpt lat="44.6268" lon="5.20155">
        <ele>1059.9859071019</ele>
        <time>2016-07-24T11:36:06.003Z</time>
      </trkpt>
      <trkpt lat="44.62671" lon="5.2015">
        <ele>1059</ele>
        <time>2016-07-24T11:37:08.013Z</time>
      </trkpt>
      <trkpt lat="44.62684" lon="5.20152">
        <ele>1059</ele>
        <time>2016-07-24T11:37:40.004Z</time>
      </trkpt>
      <trkpt lat="44.627" lon="5.20166">
        <ele>1059</ele>
        <time>2016-07-24T11:37:49.009Z</time>
      </trkpt>
      <trkpt lat="44.62728" lon="5.20181">
        <ele>1058.79639808</ele>
        <time>2016-07-24T11:38:01.009Z</time>
      </trkpt>
      <trkpt lat="44.62751" lon="5.20188">
        <ele>1055.59639808</ele>
        <time>2016-07-24T11:38:09.009Z</time>
      </trkpt>
      <trkpt lat="44.62779" lon="5.20213">
        <ele>1054.94909952</ele>
        <time>2016-07-24T11:38:21.009Z</time>
      </trkpt>
      <trkpt lat="44.628" lon="5.2023">
        <ele>1054.14909952</ele>
        <time>2016-07-24T11:38:29.009Z</time>
      </trkpt>
      <trkpt lat="44.62815" lon="5.20251">
        <ele>1053.3492992</ele>
        <time>2016-07-24T11:38:37.007Z</time>
      </trkpt>
      <trkpt lat="44.62835" lon="5.2028">
        <ele>1053</ele>
        <time>2016-07-24T11:38:45.011Z</time>
      </trkpt>
      <trkpt lat="44.62859" lon="5.20301">
        <ele>1052.74919936</ele>
        <time>2016-07-24T11:38:53.008Z</time>
      </trkpt>
      <trkpt lat="44.62866" lon="5.20335">
        <ele>1051.8464</ele>
        <time>2016-07-24T11:39:01.012Z</time>
      </trkpt>
      <trkpt lat="44.62878" lon="5.20362">
        <ele>1049.44579712</ele>
        <time>2016-07-24T11:39:09.014Z</time>
      </trkpt>
      <trkpt lat="44.62897" lon="5.20392">
        <ele>1049</ele>
        <time>2016-07-24T11:39:20.009Z</time>
      </trkpt>
      <trkpt lat="44.62917" lon="5.20401">
        <ele>1048.24879872</ele>
        <time>2016-07-24T11:39:28.012Z</time>
      </trkpt>
      <trkpt lat="44.62938" lon="5.20425">
        <ele>1047</ele>
        <time>2016-07-24T11:39:36.017Z</time>
      </trkpt>
      <trkpt lat="44.62936" lon="5.2046">
        <ele>1045.6731224781</ele>
        <time>2016-07-24T11:39:44.011Z</time>
      </trkpt>
      <trkpt lat="44.62938" lon="5.20501">
        <ele>1042.24909952</ele>
        <time>2016-07-24T11:39:58.009Z</time>
      </trkpt>
      <trkpt lat="44.62956" lon="5.20516">
        <ele>1039.79919872</ele>
        <time>2016-07-24T11:40:06.002Z</time>
      </trkpt>
      <trkpt lat="44.62977" lon="5.20529">
        <ele>1037.64879872</ele>
        <time>2016-07-24T11:40:14.012Z</time>
      </trkpt>
      <trkpt lat="44.62988" lon="5.2055">
        <ele>1037</ele>
        <time>2016-07-24T11:40:22.008Z</time>
      </trkpt>
    </trkseg>
  </trk>
</gpx>